Observation data for Throckmorton on 03/01/2021      Previous  Date  Next       Current Mesonet Observations  Soil Data  Daily Summary Page  Observations in Plain Language
KTH1 010600Z 02013G19KT 09/M02 A3011 RMK A01 T00911019  RH  046%=      5-min Rain = 0
KTH1 010601Z 02015KT 09/M02 A3011 RMK A01 T00911019  RH  046%=      5-min Rain = 0
KTH1 010602Z 02014G19KT 09/M02 A3011 RMK A01 T00911019  RH  046%=      5-min Rain = 0
KTH1 010603Z 02015G21KT 09/M02 A3011 RMK A01 T00911018  RH  046%=      5-min Rain = 0
KTH1 010604Z 01016G21KT 09/M02 A3011 RMK A01 T00911018  RH  046%=      5-min Rain = 0
KTH1 010605Z 03016G21KT 09/M02 A301 RMK A01 T00911018  RH  046%=      5-min Rain = 0
KTH1 010606Z 03013G18KT 09/M02 A301 RMK A01 T00911018  RH  046%=      5-min Rain = 0
KTH1 010607Z 01012G17KT 09/M02 A301 RMK A01 T00911017  RH  047%=      5-min Rain = 0
KTH1 010608Z 02015G23KT 09/M02 A301 RMK A01 T00911017  RH  047%=      5-min Rain = 0
KTH1 010609Z 03013KT 09/M02 A301 RMK A01 T00901017  RH  047%=      5-min Rain = 0
KTH1 010610Z 03013G20KT 09/M02 A301 RMK A01 T00911016  RH  047%=      5-min Rain = 0
KTH1 010611Z 03017G24KT 09/M02 A301 RMK A01 T00911016  RH  047%=      5-min Rain = 0
KTH1 010612Z 03016G21KT 09/M02 A301 RMK A01 T00901017  RH  047%=      5-min Rain = 0
KTH1 010613Z 03014KT 09/M02 A301 RMK A01 T00911016  RH  047%=      5-min Rain = 0
KTH1 010614Z 02011G17KT 09/M02 A301 RMK A01 T00911016  RH  047%=      5-min Rain = 0
KTH1 010615Z 02017KT 09/M02 A3011 RMK A01 T00901016  RH  047%=      5-min Rain = 0
KTH1 010616Z 03015G21KT 09/M02 A301 RMK A01 T00901016  RH  047%=      5-min Rain = 0
KTH1 010617Z 02015KT 09/M02 A3011 RMK A01 T00901016  RH  047%=      5-min Rain = 0
KTH1 010618Z 03014G21KT 09/M02 A301 RMK A01 T00901016  RH  048%=      5-min Rain = 0
KTH1 010619Z 03017G23KT 09/M02 A301 RMK A01 T00901016  RH  048%=      5-min Rain = 0
KTH1 010620Z 03016KT 09/M02 A301 RMK A01 T00901016  RH  048%=      5-min Rain = 0
KTH1 010621Z 03018G24KT 09/M02 A301 RMK A01 T00891016  RH  048%=      5-min Rain = 0
KTH1 010622Z 03016KT 09/M02 A301 RMK A01 T00891016  RH  048%=      5-min Rain = 0
KTH1 010623Z 02016G22KT 09/M02 A3011 RMK A01 T00891016  RH  048%=      5-min Rain = 0
KTH1 010624Z 03013G18KT 09/M02 A3011 RMK A01 T00891016  RH  048%=      5-min Rain = 0
KTH1 010625Z 02018G23KT 09/M02 A3011 RMK A01 T00891016  RH  048%=      5-min Rain = 0
KTH1 010626Z 03013G19KT 09/M02 A3011 RMK A01 T00891016  RH  048%=      5-min Rain = 0
KTH1 010627Z 02012G17KT 09/M02 A3011 RMK A01 T00891015  RH  048%=      5-min Rain = 0
KTH1 010628Z 02017KT 09/M02 A3011 RMK A01 T00891016  RH  048%=      5-min Rain = 0
KTH1 010629Z 03011G16KT 09/M02 A3011 RMK A01 T00891016  RH  048%=      5-min Rain = 0
KTH1 010630Z 02013KT 09/M02 A3011 RMK A01 T00891015  RH  048%=      5-min Rain = 0
KTH1 010631Z 02011G16KT 09/M02 A3011 RMK A01 T00891015  RH  048%=      5-min Rain = 0
KTH1 010632Z 03013G21KT 09/M02 A3011 RMK A01 T00891015  RH  048%=      5-min Rain = 0
KTH1 010633Z 02011G16KT 09/M02 A3011 RMK A01 T00891015  RH  048%=      5-min Rain = 0
KTH1 010634Z 03014G22KT 09/M02 A3011 RMK A01 T00881016  RH  048%=      5-min Rain = 0
KTH1 010635Z 03014G19KT 09/M02 A3011 RMK A01 T00881016  RH  048%=      5-min Rain = 0
KTH1 010636Z 02012KT 09/M02 A3011 RMK A01 T00881016  RH  048%=      5-min Rain = 0
KTH1 010637Z 03013G20KT 09/M02 A3011 RMK A01 T00881016  RH  048%=      5-min Rain = 0
KTH1 010638Z 03016KT 09/M02 A3011 RMK A01 T00881017  RH  048%=      5-min Rain = 0
KTH1 010639Z 03012KT 09/M02 A3011 RMK A01 T00881017  RH  048%=      5-min Rain = 0
KTH1 010640Z 03014KT 09/M02 A3011 RMK A01 T00881017  RH  048%=      5-min Rain = 0
KTH1 010641Z 03015G21KT 09/M02 A3011 RMK A01 T00881017  RH  048%=      5-min Rain = 0
KTH1 010642Z 03014KT 09/M02 A3011 RMK A01 T00881017  RH  048%=      5-min Rain = 0
KTH1 010643Z 03014KT 09/M02 A3011 RMK A01 T00881017  RH  048%=      5-min Rain = 0
KTH1 010644Z 03013KT 09/M02 A3011 RMK A01 T00871017  RH  048%=      5-min Rain = 0
KTH1 010645Z 02014KT 09/M02 A301 RMK A01 T00881016  RH  048%=      5-min Rain = 0
KTH1 010646Z 02015G20KT 09/M02 A301 RMK A01 T00871017  RH  048%=      5-min Rain = 0
KTH1 010647Z 03015G24KT 09/M02 A301 RMK A01 T00871017  RH  048%=      5-min Rain = 0
KTH1 010648Z 03015G21KT 09/M02 A301 RMK A01 T00881017  RH  048%=      5-min Rain = 0
KTH1 010649Z 03013G19KT 09/M02 A3011 RMK A01 T00871018  RH  048%=      5-min Rain = 0
KTH1 010650Z 03012G17KT 09/M02 A3011 RMK A01 T00871017  RH  048%=      5-min Rain = 0
KTH1 010651Z 02014KT 09/M02 A3011 RMK A01 T00871017  RH  048%=      5-min Rain = 0
KTH1 010652Z 02011G19KT 09/M02 A3011 RMK A01 T00871016  RH  048%=      5-min Rain = 0
KTH1 010653Z 02014KT 09/M02 A3012 RMK A01 T00871017  RH  048%=      5-min Rain = 0
KTH1 010654Z 02013KT 09/M02 A3012 RMK A01 T00871017  RH  048%=      5-min Rain = 0
KTH1 010655Z 02010KT 09/M02 A3012 RMK A01 T00871018  RH  048%=      5-min Rain = 0
KTH1 010656Z 03009G14KT 09/M02 A3012 RMK A01 T00871017  RH  048%=      5-min Rain = 0
KTH1 010657Z 04013KT 09/M02 A3012 RMK A01 T00871017  RH  048%=      5-min Rain = 0
KTH1 010658Z 03012KT 09/M02 A3012 RMK A01 T00871018  RH  048%=      5-min Rain = 0
KTH1 010659Z 02011G16KT 09/M02 A3012 RMK A01 T00871018  RH  047%=      5-min Rain = 0
KTH1 010700Z 03010G15KT 09/M02 A3013 RMK A01 T00871018  RH  048%=      5-min Rain = 0
KTH1 010701Z 03013KT 09/M02 A3013 RMK A01 T00871018  RH  048%=      5-min Rain = 0
KTH1 010702Z 04010G16KT 09/M02 A3013 RMK A01 T00871017  RH  048%=      5-min Rain = 0
KTH1 010703Z 02011G16KT 09/M02 A3013 RMK A01 T00871018  RH  048%=      5-min Rain = 0
KTH1 010704Z 04014G20KT 09/M02 A3013 RMK A01 T00871018  RH  048%=      5-min Rain = 0
KTH1 010705Z 03015G20KT 09/M02 A3013 RMK A01 T00871019  RH  047%=      5-min Rain = 0
KTH1 010706Z 04014G19KT 09/M02 A3013 RMK A01 T00871020  RH  047%=      5-min Rain = 0
KTH1 010707Z 03012KT 09/M02 A3013 RMK A01 T00871020  RH  047%=      5-min Rain = 0
KTH1 010708Z 03010G17KT 09/M02 A3013 RMK A01 T00871019  RH  047%=      5-min Rain = 0
KTH1 010709Z 03010KT 09/M02 A3013 RMK A01 T00871018  RH  047%=      5-min Rain = 0
KTH1 010710Z 02010KT 09/M02 A3013 RMK A01 T00871019  RH  047%=      5-min Rain = 0
KTH1 010711Z 03014G21KT 09/M02 A3013 RMK A01 T00871019  RH  047%=      5-min Rain = 0
KTH1 010712Z 02015G21KT 09/M02 A3013 RMK A01 T00871020  RH  047%=      5-min Rain = 0
KTH1 010713Z 03013KT 09/M02 A3013 RMK A01 T00871020  RH  047%=      5-min Rain = 0
KTH1 010714Z 03014G19KT 09/M02 A3012 RMK A01 T00871019  RH  047%=      5-min Rain = 0
KTH1 010715Z 03014KT 09/M02 A3012 RMK A01 T00861019  RH  047%=      5-min Rain = 0
KTH1 010716Z 03012G17KT 09/M02 A3012 RMK A01 T00861019  RH  047%=      5-min Rain = 0
KTH1 010717Z 02013G18KT 09/M02 A3012 RMK A01 T00861019  RH  048%=      5-min Rain = 0
KTH1 010718Z 03016G21KT 09/M02 A3012 RMK A01 T00861019  RH  048%=      5-min Rain = 0
KTH1 010719Z 03012G17KT 09/M02 A3012 RMK A01 T00861019  RH  048%=      5-min Rain = 0
KTH1 010720Z 03011KT 09/M02 A3012 RMK A01 T00851019  RH  048%=      5-min Rain = 0
KTH1 010721Z 04010KT 09/M02 A3012 RMK A01 T00851018  RH  048%=      5-min Rain = 0
KTH1 010722Z 04013G18KT 09/M02 A3012 RMK A01 T00851019  RH  048%=      5-min Rain = 0
KTH1 010723Z 03013KT 08/M02 A3012 RMK A01 T00841019  RH  048%=      5-min Rain = 0
KTH1 010724Z 03014G20KT 09/M02 A3012 RMK A01 T00851019  RH  048%=      5-min Rain = 0
KTH1 010725Z 03015KT 09/M02 A3013 RMK A01 T00851020  RH  048%=      5-min Rain = 0
KTH1 010726Z 03012KT 09/M02 A3013 RMK A01 T00851020  RH  048%=      5-min Rain = 0
KTH1 010727Z 03014G20KT 09/M02 A3013 RMK A01 T00851019  RH  048%=      5-min Rain = 0
KTH1 010728Z 03014G21KT 09/M02 A3013 RMK A01 T00851020  RH  048%=      5-min Rain = 0
KTH1 010729Z 03014G20KT 09/M02 A3013 RMK A01 T00851020  RH  048%=      5-min Rain = 0
KTH1 010730Z 03014G21KT 09/M02 A3013 RMK A01 T00851020  RH  048%=      5-min Rain = 0
KTH1 010731Z 03013G19KT 09/M02 A3013 RMK A01 T00851020  RH  048%=      5-min Rain = 0
KTH1 010732Z 03012KT 09/M02 A3013 RMK A01 T00851019  RH  048%=      5-min Rain = 0
KTH1 010733Z 03013G19KT 08/M02 A3013 RMK A01 T00841019  RH  048%=      5-min Rain = 0
KTH1 010734Z 03012G18KT 08/M02 A3013 RMK A01 T00841019  RH  048%=      5-min Rain = 0
KTH1 010735Z 02012G18KT 08/M02 A3013 RMK A01 T00841019  RH  048%=      5-min Rain = 0
KTH1 010736Z 03010KT 08/M02 A3013 RMK A01 T00841019  RH  049%=      5-min Rain = 0
KTH1 010737Z 03014G19KT 08/M02 A3013 RMK A01 T00831018  RH  049%=      5-min Rain = 0
KTH1 010738Z 03015KT 08/M02 A3013 RMK A01 T00831019  RH  049%=      5-min Rain = 0
KTH1 010739Z 04011G18KT 08/M02 A3013 RMK A01 T00831020  RH  049%=      5-min Rain = 0
KTH1 010740Z 03010G15KT 08/M02 A3013 RMK A01 T00831019  RH  049%=      5-min Rain = 0
KTH1 010741Z 03009KT 08/M02 A3013 RMK A01 T00821019  RH  049%=      5-min Rain = 0
KTH1 010742Z 03011KT 08/M02 A3014 RMK A01 T00821019  RH  049%=      5-min Rain = 0
KTH1 010743Z 03010KT 08/M02 A3014 RMK A01 T00821019  RH  049%=      5-min Rain = 0
KTH1 010744Z 04012KT 08/M02 A3014 RMK A01 T00821018  RH  049%=      5-min Rain = 0
KTH1 010745Z 03013G19KT 08/M02 A3014 RMK A01 T00821018  RH  049%=      5-min Rain = 0
KTH1 010746Z 03015KT 08/M02 A3015 RMK A01 T00821019  RH  049%=      5-min Rain = 0
KTH1 010747Z 03012KT 08/M02 A3015 RMK A01 T00821019  RH  049%=      5-min Rain = 0
KTH1 010748Z 02010KT 08/M02 A3015 RMK A01 T00831018  RH  049%=      5-min Rain = 0
KTH1 010749Z 03010G16KT 08/M02 A3015 RMK A01 T00821018  RH  049%=      5-min Rain = 0
KTH1 010750Z 03011KT 08/M02 A3015 RMK A01 T00821018  RH  049%=      5-min Rain = 0
KTH1 010751Z 02010G19KT 08/M02 A3015 RMK A01 T00821018  RH  049%=      5-min Rain = 0
KTH1 010752Z 02014G19KT 08/M02 A3015 RMK A01 T00821018  RH  049%=      5-min Rain = 0
KTH1 010753Z 02011KT 08/M02 A3015 RMK A01 T00821018  RH  049%=      5-min Rain = 0
KTH1 010754Z 02016G22KT 08/M02 A3015 RMK A01 T00821018  RH  049%=      5-min Rain = 0
KTH1 010755Z 01014KT 08/M02 A3015 RMK A01 T00821019  RH  049%=      5-min Rain = 0
KTH1 010756Z 02012G17KT 08/M02 A3015 RMK A01 T00821019  RH  049%=      5-min Rain = 0
KTH1 010757Z 01010KT 08/M02 A3015 RMK A01 T00821019  RH  049%=      5-min Rain = 0
KTH1 010758Z 02012G17KT 08/M02 A3015 RMK A01 T00821018  RH  049%=      5-min Rain = 0
KTH1 010759Z 03015KT 08/M02 A3016 RMK A01 T00821019  RH  049%=      5-min Rain = 0
KTH1 010800Z 02013G18KT 08/M02 A3016 RMK A01 T00821019  RH  049%=      5-min Rain = 0
KTH1 010801Z 02010G15KT 08/M02 A3016 RMK A01 T00821019  RH  049%=      5-min Rain = 0
KTH1 010802Z 03011KT 08/M02 A3016 RMK A01 T00821019  RH  049%=      5-min Rain = 0
KTH1 010803Z 03010KT 08/M02 A3015 RMK A01 T00821018  RH  049%=      5-min Rain = 0
KTH1 010804Z 03009KT 08/M02 A3015 RMK A01 T00811018  RH  049%=      5-min Rain = 0
KTH1 010805Z 03010KT 08/M02 A3015 RMK A01 T00811018  RH  050%=      5-min Rain = 0
KTH1 010806Z 02008KT 08/M02 A3014 RMK A01 T00811018  RH  050%=      5-min Rain = 0
KTH1 010807Z 03010G18KT 08/M02 A3014 RMK A01 T00811017  RH  050%=      5-min Rain = 0
KTH1 010808Z 03012KT 08/M02 A3014 RMK A01 T00811018  RH  050%=      5-min Rain = 0
KTH1 010809Z 03009KT 08/M02 A3014 RMK A01 T00801018  RH  050%=      5-min Rain = 0
KTH1 010810Z 03011KT 08/M02 A3014 RMK A01 T00811017  RH  050%=      5-min Rain = 0
KTH1 010811Z 03014KT 08/M02 A3014 RMK A01 T00811018  RH  050%=      5-min Rain = 0
KTH1 010812Z 02011KT 08/M02 A3014 RMK A01 T00801018  RH  050%=      5-min Rain = 0
KTH1 010813Z 03012G19KT 08/M02 A3014 RMK A01 T00801017  RH  050%=      5-min Rain = 0
KTH1 010814Z 03014KT 08/M02 A3014 RMK A01 T00801018  RH  050%=      5-min Rain = 0
KTH1 010815Z 02011KT 08/M02 A3014 RMK A01 T00801017  RH  050%=      5-min Rain = 0
KTH1 010816Z 03010G15KT 08/M02 A3014 RMK A01 T00801017  RH  050%=      5-min Rain = 0
KTH1 010817Z 03014G20KT 08/M02 A3014 RMK A01 T00801017  RH  050%=      5-min Rain = 0
KTH1 010818Z 04012G18KT 08/M02 A3014 RMK A01 T00801017  RH  050%=      5-min Rain = 0
KTH1 010819Z 02012G17KT 08/M02 A3014 RMK A01 T00801017  RH  050%=      5-min Rain = 0
KTH1 010820Z 02013G18KT 08/M02 A3014 RMK A01 T00801017  RH  050%=      5-min Rain = 0
KTH1 010821Z 02013G18KT 08/M02 A3014 RMK A01 T00801017  RH  050%=      5-min Rain = 0
KTH1 010822Z 01012KT 08/M02 A3014 RMK A01 T00801017  RH  050%=      5-min Rain = 0
KTH1 010823Z 01009KT 08/M02 A3014 RMK A01 T00801017  RH  050%=      5-min Rain = 0
KTH1 010824Z 03014G24KT 08/M02 A3014 RMK A01 T00801017  RH  050%=      5-min Rain = 0
KTH1 010825Z 03012G22KT 08/M02 A3014 RMK A01 T00801018  RH  050%=      5-min Rain = 0
KTH1 010826Z 03012KT 08/M02 A3015 RMK A01 T00801018  RH  050%=      5-min Rain = 0
KTH1 010827Z 03014KT 08/M02 A3015 RMK A01 T00801017  RH  050%=      5-min Rain = 0
KTH1 010828Z 02008KT 08/M02 A3015 RMK A01 T00801018  RH  050%=      5-min Rain = 0
KTH1 010829Z 03011G20KT 08/M02 A3015 RMK A01 T00801018  RH  050%=      5-min Rain = 0
KTH1 010830Z 02013G18KT 08/M02 A3015 RMK A01 T00791018  RH  050%=      5-min Rain = 0
KTH1 010831Z 03012G17KT 08/M02 A3015 RMK A01 T00801018  RH  050%=      5-min Rain = 0
KTH1 010832Z 04012G18KT 08/M02 A3016 RMK A01 T00801018  RH  050%=      5-min Rain = 0
KTH1 010833Z 02011KT 08/M02 A3016 RMK A01 T00791019  RH  050%=      5-min Rain = 0
KTH1 010834Z 02011KT 08/M02 A3016 RMK A01 T00801018  RH  050%=      5-min Rain = 0
KTH1 010835Z 02008KT 08/M02 A3016 RMK A01 T00791018  RH  050%=      5-min Rain = 0
KTH1 010836Z 03008KT 08/M02 A3016 RMK A01 T00791018  RH  050%=      5-min Rain = 0
KTH1 010837Z 02008KT 08/M02 A3016 RMK A01 T00791018  RH  050%=      5-min Rain = 0
KTH1 010838Z 03010KT 08/M02 A3016 RMK A01 T00781018  RH  051%=      5-min Rain = 0
KTH1 010839Z 02014KT 08/M02 A3016 RMK A01 T00791018  RH  050%=      5-min Rain = 0
KTH1 010840Z 03010KT 08/M02 A3016 RMK A01 T00781018  RH  050%=      5-min Rain = 0
KTH1 010841Z 02011G16KT 08/M02 A3016 RMK A01 T00781018  RH  051%=      5-min Rain = 0
KTH1 010842Z 02013KT 08/M02 A3016 RMK A01 T00781018  RH  050%=      5-min Rain = 0
KTH1 010843Z 02009KT 08/M02 A3016 RMK A01 T00791018  RH  051%=      5-min Rain = 0
KTH1 010844Z 01011G20KT 08/M02 A3016 RMK A01 T00781018  RH  051%=      5-min Rain = 0
KTH1 010845Z 02012G17KT 08/M02 A3016 RMK A01 T00781018  RH  051%=      5-min Rain = 0
KTH1 010846Z 03011G18KT 08/M02 A3016 RMK A01 T00781018  RH  051%=      5-min Rain = 0
KTH1 010847Z 02016G24KT 08/M02 A3016 RMK A01 T00781019  RH  050%=      5-min Rain = 0
KTH1 010848Z 02015G21KT 08/M02 A3016 RMK A01 T00781019  RH  050%=      5-min Rain = 0
KTH1 010849Z 03013KT 08/M02 A3017 RMK A01 T00781019  RH  050%=      5-min Rain = 0
KTH1 010850Z 04015KT 08/M02 A3017 RMK A01 T00781019  RH  050%=      5-min Rain = 0
KTH1 010851Z 03013G18KT 08/M02 A3017 RMK A01 T00781019  RH  050%=      5-min Rain = 0
KTH1 010852Z 03015G20KT 08/M02 A3018 RMK A01 T00781019  RH  050%=      5-min Rain = 0
KTH1 010853Z 03011KT 08/M02 A3018 RMK A01 T00771020  RH  050%=      5-min Rain = 0
KTH1 010854Z 03011G17KT 08/M02 A3018 RMK A01 T00771020  RH  050%=      5-min Rain = 0
KTH1 010855Z 03012G17KT 08/M02 A3018 RMK A01 T00771019  RH  050%=      5-min Rain = 0
KTH1 010856Z 04013G21KT 08/M02 A3018 RMK A01 T00771019  RH  051%=      5-min Rain = 0
KTH1 010857Z 03012G17KT 08/M02 A3018 RMK A01 T00771019  RH  051%=      5-min Rain = 0
KTH1 010858Z 03014G20KT 08/M02 A3018 RMK A01 T00761019  RH  051%=      5-min Rain = 0
KTH1 010859Z 03012G18KT 08/M02 A3018 RMK A01 T00761018  RH  051%=      5-min Rain = 0
KTH1 010900Z 03011G18KT 08/M02 A3018 RMK A01 T00761018  RH  051%=      5-min Rain = 0
KTH1 010901Z 03012KT 08/M02 A3018 RMK A01 T00761018  RH  051%=      5-min Rain = 0
KTH1 010902Z 02014G20KT 08/M02 A3018 RMK A01 T00751018  RH  052%=      5-min Rain = 0
KTH1 010903Z 02012KT 08/M02 A3018 RMK A01 T00751018  RH  052%=      5-min Rain = 0
KTH1 010904Z 01012KT 08/M02 A3018 RMK A01 T00751017  RH  052%=      5-min Rain = 0
KTH1 010905Z 02013G19KT 08/M02 A3018 RMK A01 T00751017  RH  052%=      5-min Rain = 0
KTH1 010906Z 01012G17KT 08/M02 A3018 RMK A01 T00751016  RH  052%=      5-min Rain = 0
KTH1 010907Z 02013G19KT 08/M02 A3018 RMK A01 T00751016  RH  052%=      5-min Rain = 0
KTH1 010908Z 03013G20KT 08/M02 A3019 RMK A01 T00751017  RH  052%=      5-min Rain = 0
KTH1 010909Z 02011G18KT 08/M02 A3019 RMK A01 T00751017  RH  052%=      5-min Rain = 0
KTH1 010910Z 03010G15KT 08/M02 A3019 RMK A01 T00751016  RH  052%=      5-min Rain = 0
KTH1 010911Z 02009KT 07/M02 A302 RMK A01 T00741016  RH  053%=      5-min Rain = 0
KTH1 010912Z 02011KT 07/M02 A302 RMK A01 T00741015  RH  053%=      5-min Rain = 0
KTH1 010913Z 03012KT 07/M02 A302 RMK A01 T00741015  RH  053%=      5-min Rain = 0
KTH1 010914Z 02010KT 07/M02 A302 RMK A01 T00741015  RH  053%=      5-min Rain = 0
KTH1 010915Z 02008KT 07/M01 A3019 RMK A01 T00731014  RH  054%=      5-min Rain = 0
KTH1 010916Z 03009G14KT 07/M01 A3019 RMK A01 T00731013  RH  054%=      5-min Rain = 0
KTH1 010917Z 03010KT 07/M01 A3018 RMK A01 T00731013  RH  054%=      5-min Rain = 0
KTH1 010918Z 02008KT 07/M01 A3018 RMK A01 T00721012  RH  055%=      5-min Rain = 0
KTH1 010919Z 02011KT 07/M01 A3018 RMK A01 T00721013  RH  055%=      5-min Rain = 0
KTH1 010920Z 03010KT 07/M01 A3019 RMK A01 T00721014  RH  054%=      5-min Rain = 0
KTH1 010921Z 03010KT 07/M01 A3019 RMK A01 T00721014  RH  054%=      5-min Rain = 0
KTH1 010922Z 03009G15KT 07/M01 A3019 RMK A01 T00721013  RH  055%=      5-min Rain = 0
KTH1 010923Z 03009KT 07/M01 A3019 RMK A01 T00721011  RH  056%=      5-min Rain = 0
KTH1 010924Z 03008KT 07/M01 A3019 RMK A01 T00711010  RH  056%=      5-min Rain = 0
KTH1 010925Z 02007KT 07/M01 A3019 RMK A01 T00701009  RH  057%=      5-min Rain = 0
KTH1 010926Z 02007KT 07/M01 A302 RMK A01 T00691008  RH  058%=      5-min Rain = 0
KTH1 010927Z 02007KT 07/M01 A302 RMK A01 T00691006  RH  059%=      5-min Rain = 0
KTH1 010928Z 03005KT 07/M01 A302 RMK A01 T00681005  RH  060%=      5-min Rain = 0
KTH1 010929Z 02007KT 07/M01 A302 RMK A01 T00671005  RH  060%=      5-min Rain = 0
KTH1 010930Z 03007KT 07/M01 A302 RMK A01 T00671006  RH  060%=      5-min Rain = 0
KTH1 010931Z 02008G13KT 07/M01 A3021 RMK A01 T00671005  RH  060%=      5-min Rain = 0
KTH1 010932Z 02009KT 07/M01 A3021 RMK A01 T00671006  RH  059%=      5-min Rain = 0
KTH1 010933Z 02009G14KT 07/M01 A3021 RMK A01 T00671008  RH  059%=      5-min Rain = 0
KTH1 010934Z 02009KT 07/M01 A3021 RMK A01 T00681009  RH  058%=      5-min Rain = 0
KTH1 010935Z 02008KT 07/M01 A3022 RMK A01 T00681008  RH  058%=      5-min Rain = 0
KTH1 010936Z 02006KT 07/M01 A3022 RMK A01 T00681009  RH  058%=      5-min Rain = 0
KTH1 010937Z 02004KT 07/M01 A3022 RMK A01 T00681007  RH  058%=      5-min Rain = 0
KTH1 010938Z 01005G10KT 07/M01 A3023 RMK A01 T00681006  RH  059%=      5-min Rain = 0
KTH1 010939Z 01008KT 07/M01 A3023 RMK A01 T00681006  RH  059%=      5-min Rain = 0
KTH1 010940Z 02007KT 07/M01 A3023 RMK A01 T00681008  RH  058%=      5-min Rain = 0
KTH1 010941Z 01007KT 07/M01 A3023 RMK A01 T00681009  RH  058%=      5-min Rain = 0
KTH1 010942Z 02010KT 07/M01 A3023 RMK A01 T00681009  RH  058%=      5-min Rain = 0
KTH1 010943Z 01007KT 07/M01 A3023 RMK A01 T00681010  RH  057%=      5-min Rain = 0
KTH1 010944Z 02011KT 07/M01 A3022 RMK A01 T00681009  RH  058%=      5-min Rain = 0
KTH1 010945Z 02010KT 07/M01 A3022 RMK A01 T00691011  RH  057%=      5-min Rain = 0
KTH1 010946Z 02008G14KT 07/M01 A3022 RMK A01 T00691009  RH  058%=      5-min Rain = 0
KTH1 010947Z 02011KT 07/M01 A3022 RMK A01 T00681009  RH  058%=      5-min Rain = 0
KTH1 010948Z 02013KT 07/M01 A3022 RMK A01 T00691010  RH  057%=      5-min Rain = 0
KTH1 010949Z 03010KT 07/M01 A3022 RMK A01 T00691012  RH  057%=      5-min Rain = 0
KTH1 010950Z 02009KT 07/M01 A3023 RMK A01 T00691011  RH  057%=      5-min Rain = 0
KTH1 010951Z 02008KT 07/M01 A3023 RMK A01 T00691011  RH  057%=      5-min Rain = 0
KTH1 010952Z 02008KT 07/M01 A3023 RMK A01 T00691010  RH  057%=      5-min Rain = 0
KTH1 010953Z 02009G14KT 07/M01 A3023 RMK A01 T00691011  RH  057%=      5-min Rain = 0
KTH1 010954Z 02010KT 07/M01 A3023 RMK A01 T00691010  RH  057%=      5-min Rain = 0
KTH1 010955Z 03007KT 07/M01 A3023 RMK A01 T00691010  RH  057%=      5-min Rain = 0
KTH1 010956Z 02009KT 07/M01 A3024 RMK A01 T00681010  RH  057%=      5-min Rain = 0
KTH1 010957Z 03008KT 07/M01 A3024 RMK A01 T00691010  RH  057%=      5-min Rain = 0
KTH1 010958Z 02008KT 07/M01 A3024 RMK A01 T00691010  RH  057%=      5-min Rain = 0
KTH1 010959Z 01005KT 07/M01 A3025 RMK A01 T00681010  RH  058%=      5-min Rain = 0
KTH1 011000Z 02006KT 07/M01 A3025 RMK A01 T00681009  RH  058%=      5-min Rain = 0
KTH1 011001Z 02005KT 07/M01 A3025 RMK A01 T00681009  RH  058%=      5-min Rain = 0
KTH1 011002Z 02005KT 07/M01 A3025 RMK A01 T00681009  RH  058%=      5-min Rain = 0
KTH1 011003Z 03006KT 07/M01 A3024 RMK A01 T00671008  RH  059%=      5-min Rain = 0
KTH1 011004Z 02006KT 07/M01 A3024 RMK A01 T00671006  RH  059%=      5-min Rain = 0
KTH1 011005Z 02006KT 07/M01 A3024 RMK A01 T00661005  RH  060%=      5-min Rain = 0
KTH1 011006Z 03007KT 07/M01 A3024 RMK A01 T00661005  RH  060%=      5-min Rain = 0
KTH1 011007Z 03008KT 07/M01 A3024 RMK A01 T00651006  RH  060%=      5-min Rain = 0
KTH1 011008Z 03007KT 07/M01 A3024 RMK A01 T00651006  RH  061%=      5-min Rain = 0
KTH1 011009Z 03010KT 07/M01 A3023 RMK A01 T00651006  RH  060%=      5-min Rain = 0
KTH1 011010Z 03007KT 07/M01 A3023 RMK A01 T00651005  RH  061%=      5-min Rain = 0
KTH1 011011Z 03008KT 06/M01 A3023 RMK A01 T00641005  RH  061%=      5-min Rain = 0
KTH1 011012Z 04009KT 06/M01 A3022 RMK A01 T00641007  RH  060%=      5-min Rain = 0
KTH1 011013Z 04010KT 06/M01 A3022 RMK A01 T00641006  RH  061%=      5-min Rain = 0
KTH1 011014Z 03011KT 06/M01 A3021 RMK A01 T00641007  RH  061%=      5-min Rain = 0
KTH1 011015Z 04008KT 06/M01 A3021 RMK A01 T00641007  RH  060%=      5-min Rain = 0
KTH1 011016Z 04010KT 06/M01 A3021 RMK A01 T00641005  RH  061%=      5-min Rain = 0
KTH1 011017Z 04007KT 06/M01 A3021 RMK A01 T00631005  RH  061%=      5-min Rain = 0
KTH1 011018Z 04008KT 06/M00 A3021 RMK A01 T00631004  RH  062%=      5-min Rain = 0
KTH1 011019Z 04010KT 06/M00 A3021 RMK A01 T00621004  RH  062%=      5-min Rain = 0
KTH1 011020Z 04010KT 06/M01 A3021 RMK A01 T00631005  RH  062%=      5-min Rain = 0
KTH1 011021Z 04008G14KT 06/M00 A3021 RMK A01 T00621003  RH  063%=      5-min Rain = 0
KTH1 011022Z 04009KT 06/M00 A3021 RMK A01 T00621001  RH  064%=      5-min Rain = 0
KTH1 011023Z 04009KT 06/00 A3021 RMK A01 T006100-0  RH  065%=      5-min Rain = 0
KTH1 011024Z 04009G14KT 06/00 A3021 RMK A01 T00600001  RH  065%=      5-min Rain = 0
KTH1 011025Z 04010KT 06/00 A3021 RMK A01 T00600003  RH  067%=      5-min Rain = 0
KTH1 011026Z 05010KT 06/00 A3021 RMK A01 T00590002  RH  067%=      5-min Rain = 0
KTH1 011027Z 05008KT 06/00 A3021 RMK A01 T00580004  RH  068%=      5-min Rain = 0
KTH1 011028Z 05008KT 06/00 A3021 RMK A01 T00580003  RH  068%=      5-min Rain = 0
KTH1 011029Z 04008KT 06/00 A3021 RMK A01 T00570004  RH  069%=      5-min Rain = 0
KTH1 011030Z 05009KT 06/01 A3021 RMK A01 T00570005  RH  070%=      5-min Rain = 0
KTH1 011031Z 05009KT 06/01 A3021 RMK A01 T00560005  RH  069%=      5-min Rain = 0
KTH1 011032Z 05010KT 06/01 A3021 RMK A01 T00560005  RH  069%=      5-min Rain = 0
KTH1 011033Z 05010KT 06/01 A302 RMK A01 T00560005  RH  070%=      5-min Rain = 0
KTH1 011034Z 06010KT 06/01 A302 RMK A01 T00560006  RH  070%=      5-min Rain = 0
KTH1 011035Z 06010G15KT 06/01 A302 RMK A01 T00550005  RH  070%=      5-min Rain = 0
KTH1 011036Z 05009KT 06/01 A302 RMK A01 T00550005  RH  070%=      5-min Rain = 0
KTH1 011037Z 05009KT 06/01 A3021 RMK A01 T00550006  RH  070%=      5-min Rain = 0
KTH1 011038Z 05009KT 06/01 A3021 RMK A01 T00550006  RH  071%=      5-min Rain = 0
KTH1 011039Z 04007KT 06/01 A3021 RMK A01 T00550007  RH  071%=      5-min Rain = 0
KTH1 011040Z 04007KT 05/01 A3022 RMK A01 T00540007  RH  071%=      5-min Rain = 0
KTH1 011041Z 03006KT 05/01 A3022 RMK A01 T00540007  RH  072%=      5-min Rain = 0
KTH1 011042Z 04004KT 05/01 A3022 RMK A01 T00540008  RH  072%=      5-min Rain = 0
KTH1 011043Z 04010KT 05/01 A3022 RMK A01 T00540008  RH  072%=      5-min Rain = 0
KTH1 011044Z 04007KT 05/01 A3022 RMK A01 T00530006  RH  071%=      5-min Rain = 0
KTH1 011045Z 04006KT 05/01 A3023 RMK A01 T00540008  RH  073%=      5-min Rain = 0
KTH1 011046Z 05008KT 05/01 A3023 RMK A01 T00530010  RH  074%=      5-min Rain = 0
KTH1 011047Z 04009KT 05/01 A3022 RMK A01 T00530009  RH  074%=      5-min Rain = 0
KTH1 011048Z 05008KT 05/01 A3023 RMK A01 T00520009  RH  074%=      5-min Rain = 0
KTH1 011049Z 04008KT 05/01 A3022 RMK A01 T00520011  RH  075%=      5-min Rain = 0
KTH1 011050Z 05009KT 05/01 A3022 RMK A01 T00510012  RH  076%=      5-min Rain = 0
KTH1 011051Z 05008KT 05/01 A3022 RMK A01 T00510013  RH  076%=      5-min Rain = 0
KTH1 011052Z 05009KT 05/01 A3022 RMK A01 T00500012  RH  076%=      5-min Rain = 0
KTH1 011053Z 05009KT 05/01 A3021 RMK A01 T00500012  RH  077%=      5-min Rain = 0
KTH1 011054Z 06009KT 05/01 A3021 RMK A01 T00490014  RH  078%=      5-min Rain = 0
KTH1 011055Z 06010KT 05/01 A3021 RMK A01 T00490014  RH  078%=      5-min Rain = 0
KTH1 011056Z 05009KT 05/01 A3021 RMK A01 T00480014  RH  079%=      5-min Rain = 0
KTH1 011057Z 06009KT 05/02 A3021 RMK A01 T00480015  RH  079%=      5-min Rain = 0
KTH1 011058Z 06008KT 05/02 A302 RMK A01 T00470015  RH  080%=      5-min Rain = 0
KTH1 011059Z 06009KT 05/02 A302 RMK A01 T00470015  RH  080%=      5-min Rain = 0
KTH1 011100Z 06008KT 05/02 A302 RMK A01 T00470015  RH  080%=      5-min Rain = 0
KTH1 011101Z 06009KT 05/02 A302 RMK A01 T00470015  RH  080%=      5-min Rain = 0
KTH1 011102Z 06010KT 05/02 A3019 RMK A01 T00470015  RH  080%=      5-min Rain = 0
KTH1 011103Z 06009KT 05/01 A3019 RMK A01 T00470014  RH  079%=      5-min Rain = 0
KTH1 011104Z 07007KT 05/01 A3019 RMK A01 T00470014  RH  079%=      5-min Rain = 0
KTH1 011105Z 07009KT 05/02 A3019 RMK A01 T00470015  RH  080%=      5-min Rain = 0
KTH1 011106Z 07008KT 05/01 A3019 RMK A01 T00470014  RH  079%=      5-min Rain = 0
KTH1 011107Z 07007KT 05/02 A302 RMK A01 T00470015  RH  079%=      5-min Rain = 0
KTH1 011108Z 08008KT 05/02 A302 RMK A01 T00470015  RH  079%=      5-min Rain = 0
KTH1 011109Z 08008KT 05/01 A302 RMK A01 T00480014  RH  079%=      5-min Rain = 0
KTH1 011110Z 07008KT 05/01 A302 RMK A01 T00480013  RH  078%=      5-min Rain = 0
KTH1 011111Z 08007KT 05/01 A302 RMK A01 T00480013  RH  078%=      5-min Rain = 0
KTH1 011112Z 08007KT 05/01 A302 RMK A01 T00490011  RH  077%=      5-min Rain = 0
KTH1 011113Z 08010KT 05/01 A3021 RMK A01 T00490011  RH  076%=      5-min Rain = 0
KTH1 011114Z 08007KT 05/01 A3021 RMK A01 T00500008  RH  074%=      5-min Rain = 0
KTH1 011115Z 09008KT 05/01 A3022 RMK A01 T00510009  RH  074%=      5-min Rain = 0
KTH1 011116Z 09008KT 05/01 A3022 RMK A01 T00520009  RH  074%=      5-min Rain = 0
KTH1 011117Z 09008KT 05/01 A3022 RMK A01 T00520008  RH  073%=      5-min Rain = 0
KTH1 011118Z 10008KT 05/01 A3022 RMK A01 T00530007  RH  072%=      5-min Rain = 0
KTH1 011119Z 09008KT 05/01 A3022 RMK A01 T00530007  RH  072%=      5-min Rain = 0
KTH1 011120Z 10007KT 05/01 A3022 RMK A01 T00530007  RH  072%=      5-min Rain = 0
KTH1 011121Z 09007KT 05/01 A3022 RMK A01 T00530006  RH  072%=      5-min Rain = 0
KTH1 011122Z 09009KT 05/01 A3022 RMK A01 T00540006  RH  071%=      5-min Rain = 0
KTH1 011123Z 09008KT 05/01 A3022 RMK A01 T00540005  RH  071%=      5-min Rain = 0
KTH1 011124Z 08007KT 05/00 A3022 RMK A01 T00540004  RH  070%=      5-min Rain = 0
KTH1 011125Z 08007G12KT 05/00 A3021 RMK A01 T00540004  RH  070%=      5-min Rain = 0
KTH1 011126Z 07009KT 05/00 A3021 RMK A01 T00540004  RH  070%=      5-min Rain = 0
KTH1 011127Z 07008KT 05/00 A3021 RMK A01 T00540004  RH  070%=      5-min Rain = 0
KTH1 011128Z 05008KT 05/01 A3021 RMK A01 T00540005  RH  071%=      5-min Rain = 0
KTH1 011129Z 04008KT 05/01 A3021 RMK A01 T00540006  RH  071%=      5-min Rain = 0
KTH1 011130Z 02010KT 05/01 A3022 RMK A01 T00540006  RH  071%=      5-min Rain = 0
KTH1 011131Z 02009KT 05/01 A3022 RMK A01 T00540006  RH  071%=      5-min Rain = 0
KTH1 011132Z 02008KT 05/01 A3021 RMK A01 T00530006  RH  071%=      5-min Rain = 0
KTH1 011133Z 01008KT 05/01 A3021 RMK A01 T00530008  RH  073%=      5-min Rain = 0
KTH1 011134Z 02009KT 05/01 A302 RMK A01 T00520011  RH  075%=      5-min Rain = 0
KTH1 011135Z 01010KT 05/01 A302 RMK A01 T00510012  RH  076%=      5-min Rain = 0
KTH1 011136Z 01007G12KT 05/01 A3021 RMK A01 T00490014  RH  078%=      5-min Rain = 0
KTH1 011137Z 03006KT 05/02 A3021 RMK A01 T00490016  RH  079%=      5-min Rain = 0
KTH1 011138Z 03007G12KT 05/02 A3021 RMK A01 T00470016  RH  080%=      5-min Rain = 0
KTH1 011139Z 03007KT 05/02 A3022 RMK A01 T00470017  RH  081%=      5-min Rain = 0
KTH1 011140Z 04007KT 05/02 A3022 RMK A01 T00460018  RH  082%=      5-min Rain = 0
KTH1 011141Z 03007KT 05/02 A3022 RMK A01 T00460018  RH  083%=      5-min Rain = 0
KTH1 011142Z 03005KT 05/02 A3022 RMK A01 T00450019  RH  083%=      5-min Rain = 0
KTH1 011143Z 05007KT 05/02 A3022 RMK A01 T00450020  RH  084%=      5-min Rain = 0
KTH1 011144Z 04007KT 05/02 A3022 RMK A01 T00450020  RH  084%=      5-min Rain = 0
KTH1 011145Z 05007KT 05/02 A3022 RMK A01 T00450020  RH  084%=      5-min Rain = 0
KTH1 011146Z 05006KT 05/02 A3022 RMK A01 T00450020  RH  084%=      5-min Rain = 0
KTH1 011147Z 04007KT 05/02 A3022 RMK A01 T00450020  RH  084%=      5-min Rain = 0
KTH1 011148Z 04007KT 05/02 A3022 RMK A01 T00450020  RH  084%=      5-min Rain = 0
KTH1 011149Z 04007KT 05/02 A3022 RMK A01 T00450020  RH  084%=      5-min Rain = 0
KTH1 011150Z 04007KT 05/02 A3022 RMK A01 T00450020  RH  084%=      5-min Rain = 0
KTH1 011151Z 04005KT 05/02 A3022 RMK A01 T00450020  RH  084%=      5-min Rain = 0
KTH1 011152Z 04008KT 05/02 A3022 RMK A01 T00450020  RH  084%=      5-min Rain = 0
KTH1 011153Z 04007KT 05/02 A3022 RMK A01 T00450019  RH  084%=      5-min Rain = 0
KTH1 011154Z 05007KT 05/02 A3022 RMK A01 T00450020  RH  084%=      5-min Rain = 0
KTH1 011155Z 06007KT 05/02 A3022 RMK A01 T00450019  RH  084%=      5-min Rain = 0
KTH1 011156Z 05008KT 05/02 A3022 RMK A01 T00450019  RH  084%=      5-min Rain = 0
KTH1 011157Z 06007KT 05/02 A3022 RMK A01 T00450020  RH  084%=      5-min Rain = 0
KTH1 011158Z 06007KT 05/02 A3022 RMK A01 T00450020  RH  084%=      5-min Rain = 0
KTH1 011159Z 06008KT 05/02 A3021 RMK A01 T00450020  RH  084%=      5-min Rain = 0
KTH1 011200Z 06009KT 05/02 A3021 RMK A01 T00450020  RH  084%=      5-min Rain = 0
KTH1 011201Z 07009KT 05/02 A3021 RMK A01 T00450019  RH  084%=      5-min Rain = 0
KTH1 011202Z 06007KT 05/02 A3021 RMK A01 T00450019  RH  084%=      5-min Rain = 0
KTH1 011203Z 06008KT 05/02 A3021 RMK A01 T00450020  RH  084%=      5-min Rain = 0
KTH1 011204Z 05008KT 05/02 A3021 RMK A01 T00450020  RH  084%=      5-min Rain = 0
KTH1 011205Z 06007KT 04/02 A3021 RMK A01 T00440020  RH  084%=      5-min Rain = 0
KTH1 011206Z 05007KT 04/02 A3021 RMK A01 T00440020  RH  084%=      5-min Rain = 0
KTH1 011207Z 05006KT 04/02 A3022 RMK A01 T00440020  RH  084%=      5-min Rain = 0
KTH1 011208Z 04006KT 04/02 A3022 RMK A01 T00440019  RH  084%=      5-min Rain = 0
KTH1 011209Z 03004KT 04/02 A3022 RMK A01 T00440019  RH  084%=      5-min Rain = 0
KTH1 011210Z 03005KT 04/02 A3023 RMK A01 T00440019  RH  083%=      5-min Rain = 0
KTH1 011211Z 03003KT 05/02 A3023 RMK A01 T00450019  RH  083%=      5-min Rain = 0
KTH1 011212Z 03006KT 05/02 A3023 RMK A01 T00450019  RH  084%=      5-min Rain = 0
KTH1 011213Z 02005KT 05/02 A3023 RMK A01 T00450019  RH  084%=      5-min Rain = 0
KTH1 011214Z 03007KT 05/02 A3023 RMK A01 T00450019  RH  084%=      5-min Rain = 0
KTH1 011215Z 03005KT 05/02 A3023 RMK A01 T00450019  RH  084%=      5-min Rain = 0
KTH1 011216Z 02006KT 05/02 A3023 RMK A01 T00450019  RH  084%=      5-min Rain = 0
KTH1 011217Z 02007KT 05/02 A3023 RMK A01 T00450019  RH  083%=      5-min Rain = 0
KTH1 011218Z 02007KT 05/02 A3024 RMK A01 T00450019  RH  083%=      5-min Rain = 0
KTH1 011219Z 01005KT 05/02 A3024 RMK A01 T00450019  RH  083%=      5-min Rain = 0
KTH1 011220Z 00006KT 05/02 A3024 RMK A01 T00450020  RH  084%=      5-min Rain = 0
KTH1 011221Z 01007KT 05/02 A3024 RMK A01 T00450020  RH  084%=      5-min Rain = 0
KTH1 011222Z 01007KT 05/02 A3024 RMK A01 T00450019  RH  084%=      5-min Rain = 0
KTH1 011223Z 01005KT 05/02 A3024 RMK A01 T00450019  RH  084%=      5-min Rain = 0
KTH1 011224Z 01006KT 05/02 A3024 RMK A01 T00450019  RH  084%=      5-min Rain = 0
KTH1 011225Z 01006KT 05/02 A3024 RMK A01 T00450019  RH  083%=      5-min Rain = 0
KTH1 011226Z 01007KT 05/02 A3024 RMK A01 T00450019  RH  083%=      5-min Rain = 0
KTH1 011227Z 02007KT 05/02 A3024 RMK A01 T00450019  RH  083%=      5-min Rain = 0
KTH1 011228Z 02007KT 05/02 A3024 RMK A01 T00450018  RH  083%=      5-min Rain = 0
KTH1 011229Z 03007KT 05/02 A3024 RMK A01 T00450017  RH  082%=      5-min Rain = 0
KTH1 011230Z 02010KT 05/02 A3024 RMK A01 T00450016  RH  082%=      5-min Rain = 0
KTH1 011231Z 02008KT 05/02 A3024 RMK A01 T00450016  RH  081%=      5-min Rain = 0
KTH1 011232Z 03009KT 05/02 A3023 RMK A01 T00450016  RH  081%=      5-min Rain = 0
KTH1 011233Z 02009KT 05/02 A3023 RMK A01 T00450016  RH  081%=      5-min Rain = 0
KTH1 011234Z 02009KT 05/02 A3023 RMK A01 T00450015  RH  081%=      5-min Rain = 0
KTH1 011235Z 02008KT 05/02 A3023 RMK A01 T00450016  RH  081%=      5-min Rain = 0
KTH1 011236Z 02008KT 05/02 A3023 RMK A01 T00450016  RH  081%=      5-min Rain = 0
KTH1 011237Z 02009G14KT 05/02 A3023 RMK A01 T00450015  RH  081%=      5-min Rain = 0
KTH1 011238Z 01010KT 05/01 A3023 RMK A01 T00450014  RH  080%=      5-min Rain = 0
KTH1 011239Z 01009KT 05/01 A3023 RMK A01 T00460014  RH  080%=      5-min Rain = 0
KTH1 011240Z 01007KT 05/01 A3023 RMK A01 T00460014  RH  080%=      5-min Rain = 0
KTH1 011241Z 02008KT 05/01 A3023 RMK A01 T00460014  RH  080%=      5-min Rain = 0
KTH1 011242Z 02008KT 05/01 A3023 RMK A01 T00450014  RH  080%=      5-min Rain = 0
KTH1 011243Z 01007KT 05/02 A3023 RMK A01 T00460015  RH  080%=      5-min Rain = 0
KTH1 011244Z 02007KT 05/02 A3023 RMK A01 T00460015  RH  080%=      5-min Rain = 0
KTH1 011245Z 01008KT 05/02 A3022 RMK A01 T00450015  RH  080%=      5-min Rain = 0
KTH1 011246Z 01006KT 05/02 A3022 RMK A01 T00450015  RH  081%=      5-min Rain = 0
KTH1 011247Z 01009KT 05/02 A3023 RMK A01 T00450015  RH  081%=      5-min Rain = 0
KTH1 011248Z 01008KT 04/02 A3023 RMK A01 T00440015  RH  081%=      5-min Rain = 0
KTH1 011249Z 01008KT 04/02 A3023 RMK A01 T00440016  RH  082%=      5-min Rain = 0
KTH1 011250Z 02008KT 04/02 A3023 RMK A01 T00440016  RH  082%=      5-min Rain = 0
KTH1 011251Z 01007KT 04/02 A3024 RMK A01 T00440016  RH  082%=      5-min Rain = 0
KTH1 011252Z 01009KT 04/02 A3024 RMK A01 T00440016  RH  082%=      5-min Rain = 0
KTH1 011253Z 02008KT 04/02 A3024 RMK A01 T00440016  RH  082%=      5-min Rain = 0
KTH1 011254Z 02006KT 04/02 A3024 RMK A01 T00440016  RH  082%=      5-min Rain = 0
KTH1 011255Z 02007KT 04/02 A3024 RMK A01 T00440017  RH  083%=      5-min Rain = 0
KTH1 011256Z 02004KT 04/02 A3024 RMK A01 T00440017  RH  083%=      5-min Rain = 0
KTH1 011257Z 02007KT 04/02 A3024 RMK A01 T00440017  RH  083%=      5-min Rain = 0
KTH1 011258Z 02007KT 04/02 A3024 RMK A01 T00430016  RH  083%=      5-min Rain = 0
KTH1 011259Z 02008KT 04/02 A3025 RMK A01 T00430016  RH  082%=      5-min Rain = 0
KTH1 011300Z 01008KT 04/02 A3025 RMK A01 T00430015  RH  082%=      5-min Rain = 0
KTH1 011301Z 01010KT 04/02 A3025 RMK A01 T00430015  RH  082%=      5-min Rain = 0
KTH1 011302Z 02006KT 04/02 A3025 RMK A01 T00440015  RH  082%=      5-min Rain = 0
KTH1 011303Z 01008KT 04/02 A3025 RMK A01 T00440015  RH  081%=      5-min Rain = 0
KTH1 011304Z 01007KT 04/02 A3025 RMK A01 T00440015  RH  081%=      5-min Rain = 0
KTH1 011305Z 01006KT 04/01 A3026 RMK A01 T00440014  RH  081%=      5-min Rain = 0
KTH1 011306Z 01007KT 04/01 A3026 RMK A01 T00440014  RH  081%=      5-min Rain = 0
KTH1 011307Z 00005KT 04/02 A3026 RMK A01 T00440015  RH  081%=      5-min Rain = 0
KTH1 011308Z 01006KT 04/02 A3026 RMK A01 T00440015  RH  081%=      5-min Rain = 0
KTH1 011309Z 01009KT 04/01 A3026 RMK A01 T00440014  RH  081%=      5-min Rain = 0
KTH1 011310Z 00007KT 04/01 A3026 RMK A01 T00440014  RH  081%=      5-min Rain = 0
KTH1 011311Z 01006KT 04/01 A3026 RMK A01 T00440014  RH  081%=      5-min Rain = 0
KTH1 011312Z 01007G12KT 04/01 A3026 RMK A01 T00440014  RH  081%=      5-min Rain = 0
KTH1 011313Z 02008KT 04/01 A3025 RMK A01 T00440014  RH  081%=      5-min Rain = 0
KTH1 011314Z 02008KT 04/01 A3025 RMK A01 T00440014  RH  081%=      5-min Rain = 0
KTH1 011315Z 02008KT 04/01 A3025 RMK A01 T00440014  RH  081%=      5-min Rain = 0
KTH1 011316Z 02009KT 04/01 A3024 RMK A01 T00440013  RH  081%=      5-min Rain = 0
KTH1 011317Z 02010KT 04/01 A3024 RMK A01 T00440013  RH  080%=      5-min Rain = 0
KTH1 011318Z 02010KT 04/01 A3024 RMK A01 T00440012  RH  080%=      5-min Rain = 0
KTH1 011319Z 02008KT 04/01 A3025 RMK A01 T00440012  RH  080%=      5-min Rain = 0
KTH1 011320Z 02010KT 04/01 A3025 RMK A01 T00440011  RH  079%=      5-min Rain = 0
KTH1 011321Z 01008KT 04/01 A3025 RMK A01 T00440011  RH  079%=      5-min Rain = 0
KTH1 011322Z 01006KT 04/01 A3025 RMK A01 T00440012  RH  080%=      5-min Rain = 0
KTH1 011323Z 02008KT 04/01 A3026 RMK A01 T00440013  RH  080%=      5-min Rain = 0
KTH1 011324Z 02008KT 04/01 A3026 RMK A01 T00440012  RH  080%=      5-min Rain = 0
KTH1 011325Z 01007KT 05/01 A3026 RMK A01 T00450012  RH  080%=      5-min Rain = 0
KTH1 011326Z 01007KT 04/01 A3026 RMK A01 T00440012  RH  080%=      5-min Rain = 0
KTH1 011327Z 02008KT 04/01 A3026 RMK A01 T00440012  RH  080%=      5-min Rain = 0
KTH1 011328Z 02009KT 04/01 A3026 RMK A01 T00440012  RH  080%=      5-min Rain = 0
KTH1 011329Z 02007KT 04/01 A3026 RMK A01 T00440012  RH  080%=      5-min Rain = 0
KTH1 011330Z 01008KT 04/01 A3026 RMK A01 T00440013  RH  080%=      5-min Rain = 0
KTH1 011331Z 36006KT 04/01 A3027 RMK A01 T00440013  RH  080%=      5-min Rain = 0
KTH1 011332Z 00008KT 04/01 A3027 RMK A01 T00440013  RH  080%=      5-min Rain = 0
KTH1 011333Z 00006KT 04/01 A3027 RMK A01 T00440013  RH  080%=      5-min Rain = 0
KTH1 011334Z 36007KT 04/01 A3027 RMK A01 T00440014  RH  081%=      5-min Rain = 0
KTH1 011335Z 36007KT 04/01 A3027 RMK A01 T00440014  RH  081%=      5-min Rain = 0
KTH1 011336Z 36007KT 05/02 A3027 RMK A01 T00450015  RH  081%=      5-min Rain = 0
KTH1 011337Z 00008KT 04/02 A3027 RMK A01 T00440015  RH  081%=      5-min Rain = 0
KTH1 011338Z 00009KT 05/02 A3027 RMK A01 T00450016  RH  081%=      5-min Rain = 0
KTH1 011339Z 36009KT 05/02 A3027 RMK A01 T00450015  RH  081%=      5-min Rain = 0
KTH1 011340Z 35007KT 05/02 A3028 RMK A01 T00450015  RH  081%=      5-min Rain = 0
KTH1 011341Z 35006KT 05/02 A3028 RMK A01 T00450016  RH  081%=      5-min Rain = 0
KTH1 011342Z 35006KT 05/02 A3028 RMK A01 T00450016  RH  081%=      5-min Rain = 0
KTH1 011343Z 34007KT 05/02 A3028 RMK A01 T00450017  RH  082%=      5-min Rain = 0
KTH1 011344Z 34006KT 05/02 A3028 RMK A01 T00460017  RH  081%=      5-min Rain = 0
KTH1 011345Z 34007KT 05/02 A3028 RMK A01 T00450016  RH  081%=      5-min Rain = 0
KTH1 011346Z 34007KT 05/02 A3028 RMK A01 T00460015  RH  081%=      5-min Rain = 0
KTH1 011347Z 35007KT 05/01 A3028 RMK A01 T00460014  RH  080%=      5-min Rain = 0
KTH1 011348Z 35006KT 05/01 A3028 RMK A01 T00460014  RH  080%=      5-min Rain = 0
KTH1 011349Z 36007KT 05/02 A3028 RMK A01 T00460015  RH  080%=      5-min Rain = 0
KTH1 011350Z 36006KT 05/02 A3028 RMK A01 T00460015  RH  080%=      5-min Rain = 0
KTH1 011351Z 00008KT 05/01 A3028 RMK A01 T00460014  RH  080%=      5-min Rain = 0
KTH1 011352Z 36008KT 05/01 A3028 RMK A01 T00460013  RH  079%=      5-min Rain = 0
KTH1 011353Z 36007G12KT 05/01 A3028 RMK A01 T00460013  RH  079%=      5-min Rain = 0
KTH1 011354Z 35009KT 05/01 A3028 RMK A01 T00460012  RH  079%=      5-min Rain = 0
KTH1 011355Z 01007KT 05/01 A3028 RMK A01 T00460012  RH  079%=      5-min Rain = 0
KTH1 011356Z 35007KT 05/01 A3028 RMK A01 T00460013  RH  079%=      5-min Rain = 0
KTH1 011357Z 01007KT 05/01 A3028 RMK A01 T00460012  RH  078%=      5-min Rain = 0
KTH1 011358Z 36008KT 05/01 A3028 RMK A01 T00460012  RH  078%=      5-min Rain = 0
KTH1 011359Z 36008G13KT 05/01 A3028 RMK A01 T00460012  RH  078%=      5-min Rain = 0
KTH1 011400Z 35007KT 05/01 A3028 RMK A01 T00460010  RH  078%=      5-min Rain = 0
KTH1 011401Z 35006KT 05/01 A3028 RMK A01 T00460010  RH  077%=      5-min Rain = 0
KTH1 011402Z 36007KT 05/01 A3028 RMK A01 T00460011  RH  078%=      5-min Rain = 0
KTH1 011403Z 00008KT 05/01 A3029 RMK A01 T00460011  RH  078%=      5-min Rain = 0
KTH1 011404Z 35008KT 05/01 A3029 RMK A01 T00470010  RH  077%=      5-min Rain = 0
KTH1 011405Z 36008KT 05/01 A3029 RMK A01 T00470011  RH  077%=      5-min Rain = 0
KTH1 011406Z 35006KT 05/01 A3029 RMK A01 T00460010  RH  077%=      5-min Rain = 0
KTH1 011407Z 00006G11KT 05/01 A3029 RMK A01 T00460010  RH  077%=      5-min Rain = 0
KTH1 011408Z 00010KT 05/01 A3029 RMK A01 T00460009  RH  077%=      5-min Rain = 0
KTH1 011409Z 00008KT 05/01 A3029 RMK A01 T00470008  RH  076%=      5-min Rain = 0
KTH1 011410Z 35006G11KT 05/01 A3029 RMK A01 T00470010  RH  077%=      5-min Rain = 0
KTH1 011411Z 35007KT 05/01 A3029 RMK A01 T00470011  RH  077%=      5-min Rain = 0
KTH1 011412Z 35007KT 05/01 A3029 RMK A01 T00470010  RH  077%=      5-min Rain = 0
KTH1 011413Z 35009KT 05/01 A3029 RMK A01 T00470010  RH  077%=      5-min Rain = 0
KTH1 011414Z 00008KT 05/01 A3029 RMK A01 T00470009  RH  077%=      5-min Rain = 0
KTH1 011415Z 35007KT 05/01 A3029 RMK A01 T00460009  RH  077%=      5-min Rain = 0
KTH1 011416Z 36009KT 05/01 A3029 RMK A01 T00470010  RH  077%=      5-min Rain = 0
KTH1 011417Z 00008KT 05/01 A3029 RMK A01 T00470009  RH  077%=      5-min Rain = 0
KTH1 011418Z 00010KT 05/01 A3029 RMK A01 T00470009  RH  077%=      5-min Rain = 0
KTH1 011419Z 35011KT 05/01 A3029 RMK A01 T00470007  RH  076%=      5-min Rain = 0
KTH1 011420Z 00009KT 05/01 A303 RMK A01 T00470008  RH  076%=      5-min Rain = 0
KTH1 011421Z 00012KT 05/01 A303 RMK A01 T00470007  RH  076%=      5-min Rain = 0
KTH1 011422Z 35007KT 05/01 A303 RMK A01 T00470007  RH  075%=      5-min Rain = 0
KTH1 011423Z 35005KT 05/01 A303 RMK A01 T00460009  RH  077%=      5-min Rain = 0
KTH1 011424Z 35009KT 05/01 A303 RMK A01 T00470010  RH  077%=      5-min Rain = 0
KTH1 011425Z 01009KT 05/01 A303 RMK A01 T00470008  RH  076%=      5-min Rain = 0
KTH1 011426Z 36007G12KT 05/01 A303 RMK A01 T00470008  RH  076%=      5-min Rain = 0
KTH1 011427Z 00007KT 05/01 A303 RMK A01 T00470009  RH  077%=      5-min Rain = 0
KTH1 011428Z 00010KT 05/01 A303 RMK A01 T00470009  RH  076%=      5-min Rain = 0
KTH1 011429Z 36010KT 05/01 A303 RMK A01 T00470007  RH  076%=      5-min Rain = 0
KTH1 011430Z 35011KT 05/01 A303 RMK A01 T00470008  RH  076%=      5-min Rain = 0
KTH1 011431Z 36010KT 05/01 A303 RMK A01 T00470007  RH  075%=      5-min Rain = 0
KTH1 011432Z 36011KT 05/01 A303 RMK A01 T00470006  RH  075%=      5-min Rain = 0
KTH1 011433Z 36010KT 05/01 A303 RMK A01 T00470006  RH  075%=      5-min Rain = 0
KTH1 011434Z 36011G16KT 05/01 A303 RMK A01 T00480008  RH  075%=      5-min Rain = 0
KTH1 011435Z 36009KT 05/01 A3029 RMK A01 T00480007  RH  075%=      5-min Rain = 0
KTH1 011436Z 00008G13KT 05/01 A3029 RMK A01 T00480008  RH  075%=      5-min Rain = 0
KTH1 011437Z 01009G14KT 05/01 A3029 RMK A01 T00480008  RH  075%=      5-min Rain = 0
KTH1 011438Z 36009KT 05/01 A3029 RMK A01 T00480008  RH  075%=      5-min Rain = 0
KTH1 011439Z 36010KT 05/01 A3029 RMK A01 T00490008  RH  075%=      5-min Rain = 0
KTH1 011440Z 36010KT 05/01 A3029 RMK A01 T00490008  RH  075%=      5-min Rain = 0
KTH1 011441Z 00008KT 05/01 A3029 RMK A01 T00490008  RH  075%=      5-min Rain = 0
KTH1 011442Z 36008KT 05/01 A303 RMK A01 T00500008  RH  075%=      5-min Rain = 0
KTH1 011443Z 35008KT 05/01 A303 RMK A01 T00500008  RH  074%=      5-min Rain = 0
KTH1 011444Z 00011KT 05/01 A303 RMK A01 T00500008  RH  074%=      5-min Rain = 0
KTH1 011445Z 36011KT 05/01 A303 RMK A01 T00510008  RH  074%=      5-min Rain = 0
KTH1 011446Z 01009KT 05/01 A303 RMK A01 T00500007  RH  074%=      5-min Rain = 0
KTH1 011447Z 00005KT 05/01 A303 RMK A01 T00500007  RH  074%=      5-min Rain = 0
KTH1 011448Z 35008KT 05/01 A303 RMK A01 T00510010  RH  075%=      5-min Rain = 0
KTH1 011449Z 36010KT 05/01 A303 RMK A01 T00520009  RH  074%=      5-min Rain = 0
KTH1 011450Z 36008KT 05/01 A303 RMK A01 T00520009  RH  074%=      5-min Rain = 0
KTH1 011451Z 36007G12KT 05/01 A303 RMK A01 T00510009  RH  074%=      5-min Rain = 0
KTH1 011452Z 00008KT 05/01 A303 RMK A01 T00520010  RH  074%=      5-min Rain = 0
KTH1 011453Z 35007KT 05/01 A303 RMK A01 T00520009  RH  074%=      5-min Rain = 0
KTH1 011454Z 00008KT 05/01 A303 RMK A01 T00520009  RH  073%=      5-min Rain = 0
KTH1 011455Z 00011KT 05/01 A303 RMK A01 T00520007  RH  073%=      5-min Rain = 0
KTH1 011456Z 00011KT 05/01 A303 RMK A01 T00520007  RH  072%=      5-min Rain = 0
KTH1 011457Z 00012KT 05/01 A303 RMK A01 T00520006  RH  072%=      5-min Rain = 0
KTH1 011458Z 36011KT 05/01 A303 RMK A01 T00520006  RH  072%=      5-min Rain = 0
KTH1 011459Z 36010KT 05/01 A303 RMK A01 T00520008  RH  073%=      5-min Rain = 0
KTH1 011500Z 35007KT 05/01 A303 RMK A01 T00530010  RH  074%=      5-min Rain = 0
KTH1 011501Z 36008KT 05/01 A303 RMK A01 T00530011  RH  074%=      5-min Rain = 0
KTH1 011502Z 35008KT 05/01 A303 RMK A01 T00540010  RH  074%=      5-min Rain = 0
KTH1 011503Z 35008KT 05/01 A303 RMK A01 T00540012  RH  074%=      5-min Rain = 0
KTH1 011504Z 00009KT 06/01 A303 RMK A01 T00550014  RH  075%=      5-min Rain = 0
KTH1 011505Z 35009KT 06/01 A303 RMK A01 T00560011  RH  073%=      5-min Rain = 0
KTH1 011506Z 34008KT 06/01 A303 RMK A01 T00550011  RH  073%=      5-min Rain = 0
KTH1 011507Z 35007KT 06/01 A3031 RMK A01 T00550012  RH  073%=      5-min Rain = 0
KTH1 011508Z 35006KT 06/01 A3031 RMK A01 T00550013  RH  074%=      5-min Rain = 0
KTH1 011509Z 35006KT 06/02 A3031 RMK A01 T00560015  RH  075%=      5-min Rain = 0
KTH1 011510Z 35005KT 06/01 A3031 RMK A01 T00560014  RH  074%=      5-min Rain = 0
KTH1 011511Z 00005KT 06/02 A3031 RMK A01 T00570015  RH  074%=      5-min Rain = 0
KTH1 011512Z 34006KT 06/01 A3031 RMK A01 T00570013  RH  073%=      5-min Rain = 0
KTH1 011513Z 00009KT 06/01 A3031 RMK A01 T00570012  RH  072%=      5-min Rain = 0
KTH1 011514Z 00010KT 06/01 A3031 RMK A01 T00570009  RH  071%=      5-min Rain = 0
KTH1 011515Z 00008KT 06/01 A3031 RMK A01 T00560008  RH  071%=      5-min Rain = 0
KTH1 011516Z 00011KT 06/01 A3031 RMK A01 T00570009  RH  071%=      5-min Rain = 0
KTH1 011517Z 00009G14KT 06/01 A3031 RMK A01 T00580009  RH  071%=      5-min Rain = 0
KTH1 011518Z 00010G15KT 06/01 A3031 RMK A01 T00580011  RH  072%=      5-min Rain = 0
KTH1 011519Z 36012KT 06/01 A3031 RMK A01 T00590009  RH  070%=      5-min Rain = 0
KTH1 011520Z 00010KT 06/01 A3031 RMK A01 T00590009  RH  070%=      5-min Rain = 0
KTH1 011521Z 00008KT 06/01 A3031 RMK A01 T00590010  RH  071%=      5-min Rain = 0
KTH1 011522Z 36011KT 06/01 A3031 RMK A01 T00590010  RH  070%=      5-min Rain = 0
KTH1 011523Z 36009KT 06/01 A3031 RMK A01 T00590009  RH  070%=      5-min Rain = 0
KTH1 011524Z 00009KT 06/01 A3031 RMK A01 T00600009  RH  070%=      5-min Rain = 0
KTH1 011525Z 36008KT 06/01 A3031 RMK A01 T00600009  RH  070%=      5-min Rain = 0
KTH1 011526Z 01008KT 06/01 A3031 RMK A01 T00610009  RH  070%=      5-min Rain = 0
KTH1 011527Z 35008KT 06/01 A3031 RMK A01 T00610008  RH  069%=      5-min Rain = 0
KTH1 011528Z 35009KT 06/01 A3031 RMK A01 T00610009  RH  069%=      5-min Rain = 0
KTH1 011529Z 01012KT 06/01 A3031 RMK A01 T00610009  RH  069%=      5-min Rain = 0
KTH1 011530Z 00011KT 06/01 A3031 RMK A01 T00610009  RH  069%=      5-min Rain = 0
KTH1 011531Z 01008G13KT 06/01 A3031 RMK A01 T00630011  RH  070%=      5-min Rain = 0
KTH1 011532Z 02007KT 07/02 A3031 RMK A01 T00650015  RH  070%=      5-min Rain = 0
KTH1 011533Z 02012KT 07/01 A3031 RMK A01 T00660013  RH  069%=      5-min Rain = 0
KTH1 011534Z 01009KT 07/01 A3031 RMK A01 T00650009  RH  067%=      5-min Rain = 0
KTH1 011535Z 36010KT 07/01 A3031 RMK A01 T00650010  RH  068%=      5-min Rain = 0
KTH1 011536Z 00008KT 07/01 A3031 RMK A01 T00650011  RH  068%=      5-min Rain = 0
KTH1 011537Z 00010KT 07/01 A3031 RMK A01 T00650009  RH  068%=      5-min Rain = 0
KTH1 011538Z 35012KT 07/01 A3032 RMK A01 T00650009  RH  067%=      5-min Rain = 0
KTH1 011539Z 00008G15KT 07/01 A3032 RMK A01 T00650009  RH  067%=      5-min Rain = 0
KTH1 011540Z 36010KT 07/01 A3032 RMK A01 T00650009  RH  067%=      5-min Rain = 0
KTH1 011541Z 01008KT 07/01 A3032 RMK A01 T00660010  RH  068%=      5-min Rain = 0
KTH1 011542Z 01010KT 07/01 A3032 RMK A01 T00660009  RH  067%=      5-min Rain = 0
KTH1 011543Z 02009KT 07/01 A3032 RMK A01 T00660007  RH  066%=      5-min Rain = 0
KTH1 011544Z 01006KT 07/01 A3032 RMK A01 T00660007  RH  066%=      5-min Rain = 0
KTH1 011545Z 02008KT 07/01 A3032 RMK A01 T00660010  RH  067%=      5-min Rain = 0
KTH1 011546Z 03013KT 07/01 A3031 RMK A01 T00680010  RH  066%=      5-min Rain = 0
KTH1 011547Z 01013KT 07/00 A3031 RMK A01 T00670004  RH  064%=      5-min Rain = 0
KTH1 011548Z 01012KT 07/00 A3031 RMK A01 T00650003  RH  065%=      5-min Rain = 0
KTH1 011549Z 01008G15KT 07/00 A3031 RMK A01 T00650004  RH  065%=      5-min Rain = 0
KTH1 011550Z 01011KT 07/01 A3032 RMK A01 T00660005  RH  065%=      5-min Rain = 0
KTH1 011551Z 36013KT 07/01 A3032 RMK A01 T00670006  RH  065%=      5-min Rain = 0
KTH1 011552Z 36010G15KT 07/00 A3032 RMK A01 T00680004  RH  063%=      5-min Rain = 0
KTH1 011553Z 00010KT 07/01 A3032 RMK A01 T00700007  RH  064%=      5-min Rain = 0
KTH1 011554Z 01009KT 07/01 A3032 RMK A01 T00720009  RH  065%=      5-min Rain = 0
KTH1 011555Z 36009G15KT 07/01 A3032 RMK A01 T00730009  RH  064%=      5-min Rain = 0
KTH1 011556Z 01011KT 07/01 A3032 RMK A01 T00720006  RH  063%=      5-min Rain = 0
KTH1 011557Z 01010KT 07/01 A3032 RMK A01 T00700006  RH  064%=      5-min Rain = 0
KTH1 011558Z 01012KT 07/01 A3032 RMK A01 T00710007  RH  064%=      5-min Rain = 0
KTH1 011559Z 01007KT 07/01 A3032 RMK A01 T00710006  RH  063%=      5-min Rain = 0
KTH1 011600Z 02009KT 07/01 A3032 RMK A01 T00720008  RH  064%=      5-min Rain = 0
KTH1 011601Z 02012G18KT 07/01 A3032 RMK A01 T00730008  RH  063%=      5-min Rain = 0
KTH1 011602Z 02012KT 07/00 A3032 RMK A01 T00720002  RH  061%=      5-min Rain = 0
KTH1 011603Z 03009KT 07/00 A3032 RMK A01 T00700001  RH  061%=      5-min Rain = 0
KTH1 011604Z 02008G13KT 07/00 A3032 RMK A01 T00700004  RH  063%=      5-min Rain = 0
KTH1 011605Z 01012KT 07/00 A3032 RMK A01 T00710003  RH  062%=      5-min Rain = 0
KTH1 011606Z 01009KT 07/00 A3032 RMK A01 T00710003  RH  062%=      5-min Rain = 0
KTH1 011607Z 03009KT 07/00 A3032 RMK A01 T00720003  RH  062%=      5-min Rain = 0
KTH1 011608Z 02009KT 07/00 A3032 RMK A01 T00730004  RH  062%=      5-min Rain = 0
KTH1 011609Z 01008G13KT 08/01 A3033 RMK A01 T00750005  RH  061%=      5-min Rain = 0
KTH1 011610Z 02007KT 08/00 A3033 RMK A01 T00760002  RH  060%=      5-min Rain = 0
KTH1 011611Z 00010KT 08/00 A3033 RMK A01 T00760003  RH  060%=      5-min Rain = 0
KTH1 011612Z 00010KT 08/00 A3033 RMK A01 T00750000  RH  059%=      5-min Rain = 0
KTH1 011613Z 02010KT 08/00 A3033 RMK A01 T00750001  RH  060%=      5-min Rain = 0
KTH1 011614Z 36009KT 08/00 A3033 RMK A01 T00750001  RH  059%=      5-min Rain = 0
KTH1 011615Z 02005KT 08/00 A3033 RMK A01 T00770003  RH  060%=      5-min Rain = 0
KTH1 011616Z 03010KT 08/01 A3033 RMK A01 T00820009  RH  060%=      5-min Rain = 0
KTH1 011617Z 03011KT 09/00 A3033 RMK A01 T00850004  RH  057%=      5-min Rain = 0
KTH1 011618Z 03009KT 09/00 A3033 RMK A01 T00850002  RH  056%=      5-min Rain = 0
KTH1 011619Z 03013KT 08/M00 A3033 RMK A01 T00831002  RH  055%=      5-min Rain = 0
KTH1 011620Z 04009KT 08/M00 A3033 RMK A01 T00791004  RH  056%=      5-min Rain = 0
KTH1 011621Z 04009KT 08/00 A3033 RMK A01 T00790002  RH  058%=      5-min Rain = 0
KTH1 011622Z 04012KT 08/M00 A3033 RMK A01 T00801001  RH  056%=      5-min Rain = 0
KTH1 011623Z 04008G13KT 08/M01 A3033 RMK A01 T00781005  RH  056%=      5-min Rain = 0
KTH1 011624Z 01008G13KT 08/M00 A3033 RMK A01 T00781002  RH  057%=      5-min Rain = 0
KTH1 011625Z 01010G15KT 08/M00 A3033 RMK A01 T00791003  RH  056%=      5-min Rain = 0
KTH1 011626Z 01009KT 08/M01 A3033 RMK A01 T00791005  RH  056%=      5-min Rain = 0
KTH1 011627Z 02014G19KT 08/M00 A3033 RMK A01 T00791004  RH  056%=      5-min Rain = 0
KTH1 011628Z 03013KT 08/M01 A3033 RMK A01 T00791007  RH  055%=      5-min Rain = 0
KTH1 011629Z 05010KT 08/M00 A3033 RMK A01 T00791002  RH  056%=      5-min Rain = 0
KTH1 011630Z 04008KT 08/01 A3033 RMK A01 T00840005  RH  058%=      5-min Rain = 0
KTH1 011631Z 03011KT 09/01 A3033 RMK A01 T00880005  RH  056%=      5-min Rain = 0
KTH1 011632Z 05012KT 09/00 A3033 RMK A01 T00880003  RH  055%=      5-min Rain = 0
KTH1 011633Z 05008KT 09/00 A3033 RMK A01 T00880001  RH  054%=      5-min Rain = 0
KTH1 011634Z 03011KT 09/00 A3033 RMK A01 T00890002  RH  055%=      5-min Rain = 0
KTH1 011635Z 00010KT 09/M00 A3033 RMK A01 T00881002  RH  053%=      5-min Rain = 0
KTH1 011636Z 02010KT 09/00 A3033 RMK A01 T00870000  RH  054%=      5-min Rain = 0
KTH1 011637Z 03012KT 09/00 A3033 RMK A01 T00880000  RH  054%=      5-min Rain = 0
KTH1 011638Z 03009KT 09/M00 A3033 RMK A01 T00861004  RH  053%=      5-min Rain = 0
KTH1 011639Z 04006KT 09/M00 A3033 RMK A01 T00851002  RH  055%=      5-min Rain = 0
KTH1 011640Z 01007KT 09/00 A3033 RMK A01 T00850001  RH  055%=      5-min Rain = 0
KTH1 011641Z 01009KT 09/00 A3033 RMK A01 T008600-0  RH  055%=      5-min Rain = 0
KTH1 011642Z 01008KT 09/M00 A3033 RMK A01 T00851002  RH  054%=      5-min Rain = 0
KTH1 011643Z 02008KT 08/00 A3033 RMK A01 T008400-0  RH  055%=      5-min Rain = 0
KTH1 011644Z 02009KT 09/00 A3033 RMK A01 T00850002  RH  056%=      5-min Rain = 0
KTH1 011645Z 03006KT 09/01 A3033 RMK A01 T00880005  RH  056%=      5-min Rain = 0
KTH1 011646Z 04009KT 09/00 A3033 RMK A01 T00910003  RH  054%=      5-min Rain = 0
KTH1 011647Z 04008KT 09/M00 A3033 RMK A01 T00901002  RH  052%=      5-min Rain = 0
KTH1 011648Z 03007KT 09/M00 A3033 RMK A01 T00891001  RH  053%=      5-min Rain = 0
KTH1 011649Z 03007KT 09/M01 A3033 RMK A01 T00891006  RH  051%=      5-min Rain = 0
KTH1 011650Z 01008KT 09/M00 A3033 RMK A01 T00891004  RH  052%=      5-min Rain = 0
KTH1 011651Z 00009KT 09/M00 A3033 RMK A01 T00881004  RH  053%=      5-min Rain = 0
KTH1 011652Z 01010KT 09/M00 A3033 RMK A01 T00861002  RH  054%=      5-min Rain = 0
KTH1 011653Z 00008KT 09/00 A3033 RMK A01 T00860001  RH  055%=      5-min Rain = 0
KTH1 011654Z 01008G13KT 09/01 A3033 RMK A01 T00880005  RH  056%=      5-min Rain = 0
KTH1 011655Z 01012KT 09/00 A3033 RMK A01 T00900002  RH  054%=      5-min Rain = 0
KTH1 011656Z 01010KT 09/M00 A3033 RMK A01 T00901002  RH  053%=      5-min Rain = 0
KTH1 011657Z 00009KT 09/00 A3033 RMK A01 T00900001  RH  054%=      5-min Rain = 0
KTH1 011658Z 01009G14KT 09/00 A3033 RMK A01 T00910002  RH  054%=      5-min Rain = 0
KTH1 011659Z 03008KT 09/01 A3033 RMK A01 T00940007  RH  055%=      5-min Rain = 0
KTH1 011700Z 01007KT 10/01 A3033 RMK A01 T00960006  RH  053%=      5-min Rain = 0
KTH1 011701Z 36010KT 10/01 A3033 RMK A01 T00970005  RH  053%=      5-min Rain = 0
KTH1 011702Z 02008KT 10/01 A3033 RMK A01 T00970005  RH  053%=      5-min Rain = 0
KTH1 011703Z 02013KT 10/00 A3033 RMK A01 T00970003  RH  052%=      5-min Rain = 0
KTH1 011704Z 01008KT 10/00 A3033 RMK A01 T00970003  RH  052%=      5-min Rain = 0
KTH1 011705Z 02009G15KT 10/01 A3033 RMK A01 T01000007  RH  052%=      5-min Rain = 0
KTH1 011706Z 01010KT 10/00 A3033 RMK A01 T01000001  RH  050%=      5-min Rain = 0
KTH1 011707Z 01008KT 10/M00 A3033 RMK A01 T00981001  RH  050%=      5-min Rain = 0
KTH1 011708Z 00007G13KT 10/00 A3033 RMK A01 T00980003  RH  052%=      5-min Rain = 0
KTH1 011709Z 00010KT 10/01 A3033 RMK A01 T01010005  RH  051%=      5-min Rain = 0
KTH1 011710Z 02010G15KT 10/M00 A3034 RMK A01 T01001001  RH  050%=      5-min Rain = 0
KTH1 011711Z 02008KT 10/00 A3034 RMK A01 T009800-0  RH  050%=      5-min Rain = 0
KTH1 011712Z 35012KT 10/00 A3034 RMK A01 T00980002  RH  051%=      5-min Rain = 0
KTH1 011713Z 36012KT 10/M00 A3034 RMK A01 T00981002  RH  050%=      5-min Rain = 0
KTH1 011714Z 36013KT 10/M00 A3034 RMK A01 T00981001  RH  050%=      5-min Rain = 0
KTH1 011715Z 02011G16KT 10/M00 A3034 RMK A01 T00961004  RH  050%=      5-min Rain = 0
KTH1 011716Z 03010G15KT 10/M00 A3034 RMK A01 T00951002  RH  051%=      5-min Rain = 0
KTH1 011717Z 02009KT 10/M00 A3034 RMK A01 T00961001  RH  051%=      5-min Rain = 0
KTH1 011718Z 00008G13KT 10/00 A3034 RMK A01 T00990002  RH  051%=      5-min Rain = 0
KTH1 011719Z 02011KT 10/00 A3034 RMK A01 T01010001  RH  050%=      5-min Rain = 0
KTH1 011720Z 03007KT 10/00 A3034 RMK A01 T01030001  RH  049%=      5-min Rain = 0
KTH1 011721Z 00008KT 11/00 A3035 RMK A01 T01050003  RH  049%=      5-min Rain = 0
KTH1 011722Z 36009KT 11/00 A3035 RMK A01 T01060000  RH  048%=      5-min Rain = 0
KTH1 011723Z 00011G18KT 10/00 A3035 RMK A01 T010400-0  RH  048%=      5-min Rain = 0
KTH1 011724Z 00010KT 10/M00 A3035 RMK A01 T01021003  RH  048%=      5-min Rain = 0
KTH1 011725Z 02008G13KT 10/M00 A3035 RMK A01 T01011002  RH  049%=      5-min Rain = 0
KTH1 011726Z 01007KT 10/M00 A3035 RMK A01 T01011003  RH  049%=      5-min Rain = 0
KTH1 011727Z 36009G16KT 10/M00 A3035 RMK A01 T01011001  RH  049%=      5-min Rain = 0
KTH1 011728Z 36013KT 10/M00 A3035 RMK A01 T01031002  RH  048%=      5-min Rain = 0
KTH1 011729Z 01011G16KT 10/M00 A3035 RMK A01 T01031004  RH  047%=      5-min Rain = 0
KTH1 011730Z 02011G17KT 10/M01 A3035 RMK A01 T01021005  RH  047%=      5-min Rain = 0
KTH1 011731Z 02011KT 10/M01 A3035 RMK A01 T01011009  RH  047%=      5-min Rain = 0
KTH1 011732Z 02009G14KT 10/M01 A3035 RMK A01 T00981010  RH  047%=      5-min Rain = 0
KTH1 011733Z 02010KT 10/M01 A3035 RMK A01 T00961011  RH  047%=      5-min Rain = 0
KTH1 011734Z 02011G16KT 09/M02 A3034 RMK A01 T00911016  RH  047%=      5-min Rain = 0
KTH1 011735Z 02012KT 09/M01 A3035 RMK A01 T00901014  RH  048%=      5-min Rain = 0
KTH1 011736Z 02009KT 09/M01 A3035 RMK A01 T00901012  RH  049%=      5-min Rain = 0
KTH1 011737Z 03007KT 09/M01 A3035 RMK A01 T00921012  RH  048%=      5-min Rain = 0
KTH1 011738Z 01009KT 09/M01 A3035 RMK A01 T00921010  RH  049%=      5-min Rain = 0
KTH1 011739Z 02011KT 09/M01 A3035 RMK A01 T00931011  RH  048%=      5-min Rain = 0
KTH1 011740Z 36012KT 09/M01 A3035 RMK A01 T00941011  RH  048%=      5-min Rain = 0
KTH1 011741Z 01009KT 10/M01 A3035 RMK A01 T00961010  RH  047%=      5-min Rain = 0
KTH1 011742Z 02012KT 10/M01 A3035 RMK A01 T00981007  RH  048%=      5-min Rain = 0
KTH1 011743Z 01012KT 10/M01 A3035 RMK A01 T00981009  RH  047%=      5-min Rain = 0
KTH1 011744Z 36009KT 10/M01 A3035 RMK A01 T00981011  RH  046%=      5-min Rain = 0
KTH1 011745Z 02009KT 10/M01 A3034 RMK A01 T00981012  RH  046%=      5-min Rain = 0
KTH1 011746Z 02012KT 10/M01 A3034 RMK A01 T00981010  RH  047%=      5-min Rain = 0
KTH1 011747Z 03014KT 10/M01 A3034 RMK A01 T01001011  RH  046%=      5-min Rain = 0
KTH1 011748Z 05009KT 10/M01 A3034 RMK A01 T00991013  RH  046%=      5-min Rain = 0
KTH1 011749Z 04009KT 10/M01 A3034 RMK A01 T00991009  RH  047%=      5-min Rain = 0
KTH1 011750Z 02010G16KT 10/M01 A3034 RMK A01 T00991012  RH  046%=      5-min Rain = 0
KTH1 011751Z 01011KT 10/M01 A3034 RMK A01 T00991012  RH  046%=      5-min Rain = 0
KTH1 011752Z 03010KT 10/M01 A3034 RMK A01 T00971014  RH  046%=      5-min Rain = 0
KTH1 011753Z 03009KT 10/M01 A3035 RMK A01 T00961014  RH  046%=      5-min Rain = 0
KTH1 011754Z 02006KT 10/M01 A3035 RMK A01 T00961012  RH  047%=      5-min Rain = 0
KTH1 011755Z 01007KT 10/M01 A3034 RMK A01 T00961013  RH  046%=      5-min Rain = 0
KTH1 011756Z 01008KT 10/M01 A3034 RMK A01 T00991010  RH  047%=      5-min Rain = 0
KTH1 011757Z 01007KT 10/M01 A3034 RMK A01 T01011013  RH  045%=      5-min Rain = 0
KTH1 011758Z 01008KT 10/M01 A3034 RMK A01 T01031012  RH  045%=      5-min Rain = 0
KTH1 011759Z 03008KT 10/M01 A3034 RMK A01 T01031013  RH  044%=      5-min Rain = 0
KTH1 011800Z 03008KT 10/M01 A3034 RMK A01 T01031011  RH  045%=      5-min Rain = 0
KTH1 011801Z 03009KT 10/M01 A3034 RMK A01 T01021013  RH  045%=      5-min Rain = 0
KTH1 011802Z 04007KT 10/M01 A3034 RMK A01 T01001012  RH  046%=      5-min Rain = 0
KTH1 011803Z 04010KT 10/M01 A3034 RMK A01 T00991012  RH  046%=      5-min Rain = 0
KTH1 011804Z 04012KT 10/M01 A3034 RMK A01 T00991013  RH  045%=      5-min Rain = 0
KTH1 011805Z 05011KT 10/M02 A3034 RMK A01 T00991018  RH  044%=      5-min Rain = 0
KTH1 011806Z 05008KT 10/M02 A3034 RMK A01 T00981016  RH  045%=      5-min Rain = 0
KTH1 011807Z 05007KT 10/M01 A3034 RMK A01 T00981012  RH  046%=      5-min Rain = 0
KTH1 011808Z 05008KT 10/M01 A3034 RMK A01 T00991011  RH  046%=      5-min Rain = 0
KTH1 011809Z 05010KT 10/M01 A3034 RMK A01 T01001014  RH  045%=      5-min Rain = 0
KTH1 011810Z 05009KT 10/M01 A3034 RMK A01 T01001014  RH  045%=      5-min Rain = 0
KTH1 011811Z 06009KT 10/M01 A3034 RMK A01 T00991014  RH  045%=      5-min Rain = 0
KTH1 011812Z 07009KT 10/M01 A3034 RMK A01 T00991013  RH  046%=      5-min Rain = 0
KTH1 011813Z 04008KT 10/M01 A3034 RMK A01 T01011007  RH  047%=      5-min Rain = 0
KTH1 011814Z 04007KT 10/M01 A3034 RMK A01 T01031010  RH  045%=      5-min Rain = 0
KTH1 011815Z 06007KT 10/M01 A3034 RMK A01 T01031008  RH  046%=      5-min Rain = 0
KTH1 011816Z 05008KT 10/M00 A3034 RMK A01 T01041003  RH  047%=      5-min Rain = 0
KTH1 011817Z 05007KT 11/M01 A3034 RMK A01 T01051008  RH  045%=      5-min Rain = 0
KTH1 011818Z 03008G13KT 11/M01 A3034 RMK A01 T01051008  RH  045%=      5-min Rain = 0
KTH1 011819Z 02012KT 10/M02 A3034 RMK A01 T01041015  RH  043%=      5-min Rain = 0
KTH1 011820Z 03011KT 10/M02 A3034 RMK A01 T01011020  RH  043%=      5-min Rain = 0
KTH1 011821Z 03009KT 10/M02 A3034 RMK A01 T00991017  RH  044%=      5-min Rain = 0
KTH1 011822Z 02009KT 10/M02 A3034 RMK A01 T00981016  RH  045%=      5-min Rain = 0
KTH1 011823Z 01008KT 10/M02 A3034 RMK A01 T00981018  RH  044%=      5-min Rain = 0
KTH1 011824Z 02007G13KT 10/M02 A3034 RMK A01 T00981020  RH  044%=      5-min Rain = 0
KTH1 011825Z 01010G15KT 10/M02 A3034 RMK A01 T00981017  RH  045%=      5-min Rain = 0
KTH1 011826Z 00008KT 10/M02 A3035 RMK A01 T00971016  RH  045%=      5-min Rain = 0
KTH1 011827Z 35009KT 10/M02 A3035 RMK A01 T00971015  RH  046%=      5-min Rain = 0
KTH1 011828Z 00011KT 10/M01 A3035 RMK A01 T00971013  RH  046%=      5-min Rain = 0
KTH1 011829Z 02011KT 10/M01 A3035 RMK A01 T00971014  RH  046%=      5-min Rain = 0
KTH1 011830Z 00008KT 10/M02 A3035 RMK A01 T00961015  RH  046%=      5-min Rain = 0
KTH1 011831Z 02008KT 10/M02 A3035 RMK A01 T00961015  RH  046%=      5-min Rain = 0
KTH1 011832Z 01007KT 10/M02 A3035 RMK A01 T00951016  RH  046%=      5-min Rain = 0
KTH1 011833Z 02007KT 09/M02 A3035 RMK A01 T00941016  RH  046%=      5-min Rain = 0
KTH1 011834Z 00004KT 09/M02 A3034 RMK A01 T00941018  RH  046%=      5-min Rain = 0
KTH1 011835Z 01005KT 10/M01 A3034 RMK A01 T00961014  RH  046%=      5-min Rain = 0
KTH1 011836Z 03006KT 10/M01 A3034 RMK A01 T00981012  RH  046%=      5-min Rain = 0
KTH1 011837Z 04009KT 10/M01 A3034 RMK A01 T01001014  RH  045%=      5-min Rain = 0
KTH1 011838Z 03009KT 10/M02 A3034 RMK A01 T01001018  RH  044%=      5-min Rain = 0
KTH1 011839Z 02009KT 10/M02 A3034 RMK A01 T00991020  RH  043%=      5-min Rain = 0
KTH1 011840Z 01010KT 10/M02 A3034 RMK A01 T00981021  RH  043%=      5-min Rain = 0
KTH1 011841Z 02007KT 10/M02 A3034 RMK A01 T00971021  RH  044%=      5-min Rain = 0
KTH1 011842Z 02011KT 10/M02 A3034 RMK A01 T00971020  RH  044%=      5-min Rain = 0
KTH1 011843Z 02008KT 10/M02 A3034 RMK A01 T00971023  RH  043%=      5-min Rain = 0
KTH1 011844Z 03007KT 10/M02 A3034 RMK A01 T00971023  RH  043%=      5-min Rain = 0
KTH1 011845Z 03008KT 10/M02 A3034 RMK A01 T00971023  RH  043%=      5-min Rain = 0
KTH1 011846Z 05009KT 10/M02 A3034 RMK A01 T00971021  RH  044%=      5-min Rain = 0
KTH1 011847Z 03007KT 10/M02 A3034 RMK A01 T00981019  RH  044%=      5-min Rain = 0
KTH1 011848Z 02009KT 10/M02 A3034 RMK A01 T00981017  RH  044%=      5-min Rain = 0
KTH1 011849Z 35010KT 10/M02 A3034 RMK A01 T00981016  RH  045%=      5-min Rain = 0
KTH1 011850Z 34010KT 10/M02 A3034 RMK A01 T00971017  RH  045%=      5-min Rain = 0
KTH1 011851Z 35009KT 10/M02 A3034 RMK A01 T00961016  RH  045%=      5-min Rain = 0
KTH1 011852Z 36008KT 10/M02 A3034 RMK A01 T00961015  RH  046%=      5-min Rain = 0
KTH1 011853Z 01009KT 10/M01 A3034 RMK A01 T00961014  RH  046%=      5-min Rain = 0
KTH1 011854Z 36009G15KT 10/M02 A3034 RMK A01 T00971015  RH  046%=      5-min Rain = 0
KTH1 011855Z 36011KT 10/M02 A3034 RMK A01 T00971018  RH  045%=      5-min Rain = 0
KTH1 011856Z 35012KT 10/M02 A3034 RMK A01 T00961019  RH  044%=      5-min Rain = 0
KTH1 011857Z 00008KT 10/M02 A3034 RMK A01 T00961018  RH  045%=      5-min Rain = 0
KTH1 011858Z 01009KT 10/M01 A3034 RMK A01 T00981013  RH  046%=      5-min Rain = 0
KTH1 011859Z 01010KT 10/M01 A3034 RMK A01 T01031012  RH  045%=      5-min Rain = 0
KTH1 011900Z 36010KT 11/M01 A3034 RMK A01 T01061014  RH  043%=      5-min Rain = 0
KTH1 011901Z 35010KT 11/M02 A3034 RMK A01 T01061017  RH  042%=      5-min Rain = 0
KTH1 011902Z 02007KT 11/M01 A3033 RMK A01 T01061011  RH  044%=      5-min Rain = 0
KTH1 011903Z 02010KT 11/M01 A3033 RMK A01 T01101011  RH  043%=      5-min Rain = 0
KTH1 011904Z 03008KT 11/M01 A3033 RMK A01 T01101013  RH  042%=      5-min Rain = 0
KTH1 011905Z 04004KT 11/M02 A3033 RMK A01 T01071017  RH  042%=      5-min Rain = 0
KTH1 011906Z 03008KT 10/M02 A3033 RMK A01 T01041018  RH  042%=      5-min Rain = 0
KTH1 011907Z 04009KT 10/M02 A3033 RMK A01 T01031022  RH  042%=      5-min Rain = 0
KTH1 011908Z 03010KT 10/M03 A3033 RMK A01 T01031026  RH  040%=      5-min Rain = 0
KTH1 011909Z 03007KT 10/M02 A3033 RMK A01 T01041024  RH  041%=      5-min Rain = 0
KTH1 011910Z 00006KT 11/M01 A3033 RMK A01 T01081014  RH  042%=      5-min Rain = 0
KTH1 011911Z 03006KT 11/M01 A3033 RMK A01 T01121014  RH  042%=      5-min Rain = 0
KTH1 011912Z 03008KT 11/M01 A3033 RMK A01 T01131010  RH  042%=      5-min Rain = 0
KTH1 011913Z 03010KT 11/M01 A3033 RMK A01 T01141013  RH  041%=      5-min Rain = 0
KTH1 011914Z 03012KT 11/M02 A3033 RMK A01 T01141015  RH  041%=      5-min Rain = 0
KTH1 011915Z 03010KT 11/M02 A3032 RMK A01 T01121017  RH  041%=      5-min Rain = 0
KTH1 011916Z 04010G15KT 11/M02 A3032 RMK A01 T01121016  RH  041%=      5-min Rain = 0
KTH1 011917Z 04009G14KT 11/M02 A3032 RMK A01 T01141020  RH  039%=      5-min Rain = 0
KTH1 011918Z 05008KT 12/M02 A3032 RMK A01 T01161015  RH  040%=      5-min Rain = 0
KTH1 011919Z 05008G13KT 12/M01 A3032 RMK A01 T01211012  RH  040%=      5-min Rain = 0
KTH1 011920Z 02010KT 12/M01 A3032 RMK A01 T01231014  RH  039%=      5-min Rain = 0
KTH1 011921Z 02006KT 12/M01 A3032 RMK A01 T01221014  RH  039%=      5-min Rain = 0
KTH1 011922Z 02008G13KT 13/M01 A3032 RMK A01 T01251011  RH  039%=      5-min Rain = 0
KTH1 011923Z 04007KT 13/M02 A3032 RMK A01 T01281017  RH  036%=      5-min Rain = 0
KTH1 011924Z 04010KT 13/M01 A3032 RMK A01 T01281010  RH  039%=      5-min Rain = 0
KTH1 011925Z 05009KT 13/M02 A3032 RMK A01 T01271018  RH  036%=      5-min Rain = 0
KTH1 011926Z 04009KT 13/M02 A3032 RMK A01 T01251020  RH  036%=      5-min Rain = 0
KTH1 011927Z 03008KT 13/M02 A3032 RMK A01 T01251023  RH  036%=      5-min Rain = 0
KTH1 011928Z 03009KT 13/M02 A3032 RMK A01 T01251023  RH  036%=      5-min Rain = 0
KTH1 011929Z 05006KT 12/M02 A3032 RMK A01 T01221022  RH  037%=      5-min Rain = 0
KTH1 011930Z 04008KT 12/M02 A3032 RMK A01 T01231016  RH  038%=      5-min Rain = 0
KTH1 011931Z 04009KT 12/M02 A3032 RMK A01 T01211021  RH  037%=      5-min Rain = 0
KTH1 011932Z 36008KT 12/M02 A3032 RMK A01 T01181020  RH  038%=      5-min Rain = 0
KTH1 011933Z 36009KT 12/M02 A3032 RMK A01 T01191022  RH  038%=      5-min Rain = 0
KTH1 011934Z 35009KT 12/M02 A3032 RMK A01 T01171021  RH  038%=      5-min Rain = 0
KTH1 011935Z 00005KT 12/M02 A3031 RMK A01 T01171017  RH  040%=      5-min Rain = 0
KTH1 011936Z 00007KT 12/M01 A3031 RMK A01 T01201013  RH  040%=      5-min Rain = 0
KTH1 011937Z 04008KT 12/M01 A3031 RMK A01 T01231008  RH  040%=      5-min Rain = 0
KTH1 011938Z 03008KT 13/M01 A3031 RMK A01 T01251013  RH  038%=      5-min Rain = 0
KTH1 011939Z 01008KT 13/M01 A3031 RMK A01 T01251014  RH  038%=      5-min Rain = 0
KTH1 011940Z 36008KT 12/M02 A3031 RMK A01 T01241015  RH  038%=      5-min Rain = 0
KTH1 011941Z 34006KT 12/M01 A3031 RMK A01 T01241013  RH  039%=      5-min Rain = 0
KTH1 011942Z 00006KT 13/M01 A3031 RMK A01 T01261006  RH  040%=      5-min Rain = 0
KTH1 011943Z 34010KT 13/M01 A3031 RMK A01 T01291007  RH  039%=      5-min Rain = 0
KTH1 011944Z 34013KT 13/M01 A3031 RMK A01 T01301005  RH  039%=      5-min Rain = 0
KTH1 011945Z 33013G20KT 13/M01 A3031 RMK A01 T01261008  RH  040%=      5-min Rain = 0
KTH1 011946Z 34014KT 12/M01 A3031 RMK A01 T01241008  RH  040%=      5-min Rain = 0
KTH1 011947Z 34010KT 12/M01 A3031 RMK A01 T01221008  RH  041%=      5-min Rain = 0
KTH1 011948Z 33015KT 12/M00 A3031 RMK A01 T01221004  RH  042%=      5-min Rain = 0
KTH1 011949Z 33015KT 12/M01 A3031 RMK A01 T01221009  RH  040%=      5-min Rain = 0
KTH1 011950Z 33012G19KT 12/M01 A3031 RMK A01 T01211006  RH  041%=      5-min Rain = 0
KTH1 011951Z 34014G19KT 12/M01 A3032 RMK A01 T01201009  RH  041%=      5-min Rain = 0
KTH1 011952Z 35011G17KT 12/M01 A3032 RMK A01 T01181011  RH  041%=      5-min Rain = 0
KTH1 011953Z 01009G14KT 12/M01 A3032 RMK A01 T01161008  RH  042%=      5-min Rain = 0
KTH1 011954Z 36011KT 12/M01 A3032 RMK A01 T01161010  RH  042%=      5-min Rain = 0
KTH1 011955Z 35011G17KT 12/M01 A3032 RMK A01 T01161009  RH  042%=      5-min Rain = 0
KTH1 011956Z 35011KT 11/M01 A3032 RMK A01 T01141010  RH  042%=      5-min Rain = 0
KTH1 011957Z 35012KT 11/M01 A3032 RMK A01 T01111012  RH  042%=      5-min Rain = 0
KTH1 011958Z 35012G17KT 11/M01 A3032 RMK A01 T01091013  RH  043%=      5-min Rain = 0
KTH1 011959Z 34012KT 11/M01 A3032 RMK A01 T01081011  RH  043%=      5-min Rain = 0
KTH1 012000Z 35010G16KT 11/M01 A3031 RMK A01 T01071014  RH  043%=      5-min Rain = 0
KTH1 012001Z 35011KT 11/M01 A3032 RMK A01 T01061013  RH  043%=      5-min Rain = 0
KTH1 012002Z 35011G17KT 11/M01 A3032 RMK A01 T01061012  RH  044%=      5-min Rain = 0
KTH1 012003Z 35013KT 11/M01 A3032 RMK A01 T01061014  RH  043%=      5-min Rain = 0
KTH1 012004Z 36010KT 11/M02 A3032 RMK A01 T01061016  RH  043%=      5-min Rain = 0
KTH1 012005Z 36009KT 11/M02 A3032 RMK A01 T01061016  RH  043%=      5-min Rain = 0
KTH1 012006Z 35006KT 11/M02 A3032 RMK A01 T01061015  RH  043%=      5-min Rain = 0
KTH1 012007Z 35007KT 11/M01 A3032 RMK A01 T01071013  RH  043%=      5-min Rain = 0
KTH1 012008Z 35008KT 11/M02 A3032 RMK A01 T01081016  RH  042%=      5-min Rain = 0
KTH1 012009Z 36006KT 11/M01 A3032 RMK A01 T01101013  RH  042%=      5-min Rain = 0
KTH1 012010Z 35006KT 11/M01 A3032 RMK A01 T01131013  RH  042%=      5-min Rain = 0
KTH1 012011Z 35007KT 11/M01 A3032 RMK A01 T01141014  RH  041%=      5-min Rain = 0
KTH1 012012Z 00011KT 12/M01 A3032 RMK A01 T01151013  RH  041%=      5-min Rain = 0
KTH1 012013Z 36012KT 12/M02 A3032 RMK A01 T01161015  RH  040%=      5-min Rain = 0
KTH1 012014Z 01011KT 12/M02 A3031 RMK A01 T01181016  RH  039%=      5-min Rain = 0
KTH1 012015Z 02010KT 12/M01 A3031 RMK A01 T01201012  RH  040%=      5-min Rain = 0
KTH1 012016Z 02008KT 12/M01 A3031 RMK A01 T01221011  RH  040%=      5-min Rain = 0
KTH1 012017Z 02008KT 12/M01 A3031 RMK A01 T01231011  RH  039%=      5-min Rain = 0
KTH1 012018Z 01005KT 12/M01 A3031 RMK A01 T01231013  RH  039%=      5-min Rain = 0
KTH1 012019Z 01007G13KT 13/M01 A3031 RMK A01 T01251006  RH  040%=      5-min Rain = 0
KTH1 012020Z 01006KT 13/M01 A3031 RMK A01 T01291005  RH  040%=      5-min Rain = 0
KTH1 012021Z 35012KT 13/M01 A3031 RMK A01 T01321008  RH  038%=      5-min Rain = 0
KTH1 012022Z 34010KT 13/M01 A3031 RMK A01 T01291013  RH  037%=      5-min Rain = 0
KTH1 012023Z 34008KT 12/M01 A3031 RMK A01 T01241014  RH  038%=      5-min Rain = 0
KTH1 012024Z 33008KT 12/M02 A3031 RMK A01 T01221015  RH  039%=      5-min Rain = 0
KTH1 012025Z 34011KT 12/M01 A3031 RMK A01 T01211013  RH  039%=      5-min Rain = 0
KTH1 012026Z 36013KT 12/M02 A3031 RMK A01 T01221016  RH  038%=      5-min Rain = 0
KTH1 012027Z 00011KT 12/M02 A3031 RMK A01 T01201021  RH  037%=      5-min Rain = 0
KTH1 012028Z 36009KT 12/M01 A3031 RMK A01 T01211014  RH  039%=      5-min Rain = 0
KTH1 012029Z 35011G17KT 13/M01 A3031 RMK A01 T01251011  RH  039%=      5-min Rain = 0
KTH1 012030Z 35010G15KT 13/M02 A3031 RMK A01 T01251017  RH  037%=      5-min Rain = 0
KTH1 012031Z 35011KT 12/M02 A3031 RMK A01 T01221020  RH  037%=      5-min Rain = 0
KTH1 012032Z 35007KT 12/M02 A3031 RMK A01 T01191021  RH  038%=      5-min Rain = 0
KTH1 012033Z 35010KT 12/M02 A3031 RMK A01 T01161023  RH  038%=      5-min Rain = 0
KTH1 012034Z 35010KT 11/M03 A3031 RMK A01 T01141025  RH  038%=      5-min Rain = 0
KTH1 012035Z 35009G14KT 11/M03 A3031 RMK A01 T01141025  RH  038%=      5-min Rain = 0
KTH1 012036Z 35005KT 11/M02 A3031 RMK A01 T01131022  RH  039%=      5-min Rain = 0
KTH1 012037Z 00009KT 11/M02 A3031 RMK A01 T01141022  RH  039%=      5-min Rain = 0
KTH1 012038Z 00009KT 12/M02 A3031 RMK A01 T01151023  RH  038%=      5-min Rain = 0
KTH1 012039Z 02008KT 12/M03 A3031 RMK A01 T01151026  RH  037%=      5-min Rain = 0
KTH1 012040Z 01007KT 11/M03 A3031 RMK A01 T01141030  RH  037%=      5-min Rain = 0
KTH1 012041Z 35007KT 11/M03 A3031 RMK A01 T01131031  RH  036%=      5-min Rain = 0
KTH1 012042Z 34007KT 11/M03 A3031 RMK A01 T01121029  RH  037%=      5-min Rain = 0
KTH1 012043Z 01007KT 11/M03 A3031 RMK A01 T01121028  RH  038%=      5-min Rain = 0
KTH1 012044Z 01008KT 11/M03 A3031 RMK A01 T01131030  RH  037%=      5-min Rain = 0
KTH1 012045Z 02009G14KT 11/M03 A3031 RMK A01 T01131030  RH  037%=      5-min Rain = 0
KTH1 012046Z 03010KT 11/M03 A3031 RMK A01 T01131032  RH  036%=      5-min Rain = 0
KTH1 012047Z 03008G13KT 11/M03 A3031 RMK A01 T01131030  RH  036%=      5-min Rain = 0
KTH1 012048Z 03007KT 11/M03 A3031 RMK A01 T01141030  RH  036%=      5-min Rain = 0
KTH1 012049Z 04007KT 12/M03 A3031 RMK A01 T01151029  RH  036%=      5-min Rain = 0
KTH1 012050Z 02008KT 12/M03 A3031 RMK A01 T01171027  RH  037%=      5-min Rain = 0
KTH1 012051Z 02008KT 12/M03 A3031 RMK A01 T01181030  RH  035%=      5-min Rain = 0
KTH1 012052Z 02008KT 12/M03 A3031 RMK A01 T01181031  RH  035%=      5-min Rain = 0
KTH1 012053Z 02008KT 12/M03 A3031 RMK A01 T01181030  RH  035%=      5-min Rain = 0
KTH1 012054Z 02006KT 12/M03 A3031 RMK A01 T01211028  RH  035%=      5-min Rain = 0
KTH1 012055Z 02009KT 12/M02 A3031 RMK A01 T01241022  RH  036%=      5-min Rain = 0
KTH1 012056Z 33008KT 13/M01 A303 RMK A01 T01281014  RH  037%=      5-min Rain = 0
KTH1 012057Z 34006KT 13/M01 A3031 RMK A01 T01321007  RH  038%=      5-min Rain = 0
KTH1 012058Z 35007KT 13/M01 A3031 RMK A01 T01331010  RH  037%=      5-min Rain = 0
KTH1 012059Z 34009KT 13/M01 A3031 RMK A01 T01341008  RH  038%=      5-min Rain = 0
KTH1 012100Z 34011KT 13/M01 A3031 RMK A01 T01341012  RH  037%=      5-min Rain = 0
KTH1 012101Z 34007KT 13/M01 A3031 RMK A01 T01311013  RH  037%=      5-min Rain = 0
KTH1 012102Z 35009G17KT 13/M01 A3031 RMK A01 T01301014  RH  037%=      5-min Rain = 0
KTH1 012103Z 35010G16KT 13/M02 A3031 RMK A01 T01291015  RH  037%=      5-min Rain = 0
KTH1 012104Z 01009KT 13/M01 A3031 RMK A01 T01311014  RH  037%=      5-min Rain = 0
KTH1 012105Z 00010KT 13/M01 A303 RMK A01 T01331013  RH  036%=      5-min Rain = 0
KTH1 012106Z 00008KT 14/M01 A3031 RMK A01 T01361010  RH  036%=      5-min Rain = 0
KTH1 012107Z 35009G14KT 14/M01 A303 RMK A01 T01371010  RH  036%=      5-min Rain = 0
KTH1 012108Z 35009G14KT 14/M01 A3031 RMK A01 T01371009  RH  037%=      5-min Rain = 0
KTH1 012109Z 35010G16KT 14/M01 A3031 RMK A01 T01361011  RH  036%=      5-min Rain = 0
KTH1 012110Z 35012G17KT 13/M01 A3031 RMK A01 T01331014  RH  036%=      5-min Rain = 0
KTH1 012111Z 00013KT 13/M02 A3031 RMK A01 T01311017  RH  036%=      5-min Rain = 0
KTH1 012112Z 00011KT 13/M02 A3031 RMK A01 T01291018  RH  036%=      5-min Rain = 0
KTH1 012113Z 00009KT 13/M02 A3031 RMK A01 T01291018  RH  036%=      5-min Rain = 0
KTH1 012114Z 35013G18KT 13/M02 A3031 RMK A01 T01281017  RH  036%=      5-min Rain = 0
KTH1 012115Z 35011KT 13/M02 A3031 RMK A01 T01281015  RH  037%=      5-min Rain = 0
KTH1 012116Z 35008G13KT 13/M02 A3031 RMK A01 T01291017  RH  036%=      5-min Rain = 0
KTH1 012117Z 33007G12KT 13/M02 A303 RMK A01 T01281016  RH  037%=      5-min Rain = 0
KTH1 012118Z 33008KT 13/M02 A303 RMK A01 T01281016  RH  037%=      5-min Rain = 0
KTH1 012119Z 33011G16KT 13/M02 A303 RMK A01 T01291016  RH  037%=      5-min Rain = 0
KTH1 012120Z 35010KT 13/M02 A303 RMK A01 T01281020  RH  036%=      5-min Rain = 0
KTH1 012121Z 36010KT 13/M02 A3031 RMK A01 T01281018  RH  036%=      5-min Rain = 0
KTH1 012122Z 35008KT 13/M02 A3031 RMK A01 T01291018  RH  036%=      5-min Rain = 0
KTH1 012123Z 35010KT 13/M02 A3031 RMK A01 T01291019  RH  036%=      5-min Rain = 0
KTH1 012124Z 34013KT 13/M02 A3031 RMK A01 T01281021  RH  036%=      5-min Rain = 0
KTH1 012125Z 34011KT 13/M02 A3031 RMK A01 T01251022  RH  036%=      5-min Rain = 0
KTH1 012126Z 34013G18KT 12/M02 A3031 RMK A01 T01241021  RH  036%=      5-min Rain = 0
KTH1 012127Z 35010KT 12/M02 A3031 RMK A01 T01221023  RH  036%=      5-min Rain = 0
KTH1 012128Z 35007KT 12/M02 A303 RMK A01 T01201022  RH  037%=      5-min Rain = 0
KTH1 012129Z 35010KT 12/M02 A303 RMK A01 T01191021  RH  038%=      5-min Rain = 0
KTH1 012130Z 36011G17KT 12/M02 A303 RMK A01 T01181022  RH  038%=      5-min Rain = 0
KTH1 012131Z 34012KT 12/M03 A303 RMK A01 T01171025  RH  037%=      5-min Rain = 0
KTH1 012132Z 34011KT 12/M02 A303 RMK A01 T01171024  RH  038%=      5-min Rain = 0
KTH1 012133Z 34017G22KT 12/M02 A303 RMK A01 T01171024  RH  037%=      5-min Rain = 0
KTH1 012134Z 35013KT 12/M02 A303 RMK A01 T01161024  RH  038%=      5-min Rain = 0
KTH1 012135Z 00012KT 12/M02 A303 RMK A01 T01161024  RH  038%=      5-min Rain = 0
KTH1 012136Z 36012KT 12/M02 A303 RMK A01 T01161024  RH  038%=      5-min Rain = 0
KTH1 012137Z 36009G14KT 12/M02 A303 RMK A01 T01161024  RH  038%=      5-min Rain = 0
KTH1 012138Z 36012KT 12/M02 A303 RMK A01 T01161022  RH  038%=      5-min Rain = 0
KTH1 012139Z 35011KT 12/M02 A303 RMK A01 T01181021  RH  038%=      5-min Rain = 0
KTH1 012140Z 35009KT 12/M02 A303 RMK A01 T01191023  RH  037%=      5-min Rain = 0
KTH1 012141Z 34012KT 12/M02 A303 RMK A01 T01221018  RH  038%=      5-min Rain = 0
KTH1 012142Z 34011G16KT 13/M02 A303 RMK A01 T01251017  RH  037%=      5-min Rain = 0
KTH1 012143Z 00015KT 13/M02 A303 RMK A01 T01261019  RH  036%=      5-min Rain = 0
KTH1 012144Z 36012KT 13/M02 A303 RMK A01 T01261021  RH  036%=      5-min Rain = 0
KTH1 012145Z 35013KT 13/M02 A303 RMK A01 T01271020  RH  036%=      5-min Rain = 0
KTH1 012146Z 35012KT 13/M02 A303 RMK A01 T01271023  RH  035%=      5-min Rain = 0
KTH1 012147Z 34010KT 13/M02 A303 RMK A01 T01261021  RH  036%=      5-min Rain = 0
KTH1 012148Z 36013KT 13/M02 A303 RMK A01 T01281019  RH  036%=      5-min Rain = 0
KTH1 012149Z 35012KT 13/M02 A303 RMK A01 T01281022  RH  035%=      5-min Rain = 0
KTH1 012150Z 34008G13KT 13/M02 A303 RMK A01 T01281019  RH  036%=      5-min Rain = 0
KTH1 012151Z 35012KT 13/M02 A303 RMK A01 T01291022  RH  035%=      5-min Rain = 0
KTH1 012152Z 35010KT 13/M02 A303 RMK A01 T01281022  RH  035%=      5-min Rain = 0
KTH1 012153Z 34010KT 13/M02 A303 RMK A01 T01281020  RH  036%=      5-min Rain = 0
KTH1 012154Z 35009KT 13/M02 A303 RMK A01 T01291020  RH  036%=      5-min Rain = 0
KTH1 012155Z 00013G18KT 13/M02 A303 RMK A01 T01291022  RH  035%=      5-min Rain = 0
KTH1 012156Z 01012KT 13/M03 A3031 RMK A01 T01291026  RH  034%=      5-min Rain = 0
KTH1 012157Z 00010KT 13/M03 A3031 RMK A01 T01281028  RH  034%=      5-min Rain = 0
KTH1 012158Z 35009KT 13/M03 A3031 RMK A01 T01271028  RH  034%=      5-min Rain = 0
KTH1 012159Z 35011KT 13/M02 A303 RMK A01 T01271024  RH  035%=      5-min Rain = 0
KTH1 012200Z 34012KT 13/M02 A303 RMK A01 T01281024  RH  035%=      5-min Rain = 0
KTH1 012201Z 35013G19KT 13/M03 A303 RMK A01 T01281025  RH  034%=      5-min Rain = 0
KTH1 012202Z 35010KT 13/M03 A303 RMK A01 T01281025  RH  034%=      5-min Rain = 0
KTH1 012203Z 34014G20KT 13/M02 A303 RMK A01 T01281023  RH  035%=      5-min Rain = 0
KTH1 012204Z 35013KT 13/M03 A303 RMK A01 T01281026  RH  034%=      5-min Rain = 0
KTH1 012205Z 35010KT 13/M03 A303 RMK A01 T01271027  RH  034%=      5-min Rain = 0
KTH1 012206Z 35014G20KT 13/M03 A303 RMK A01 T01271026  RH  034%=      5-min Rain = 0
KTH1 012207Z 01010KT 13/M03 A303 RMK A01 T01271028  RH  034%=      5-min Rain = 0
KTH1 012208Z 02013G19KT 13/M03 A303 RMK A01 T01281031  RH  033%=      5-min Rain = 0
KTH1 012209Z 03013KT 13/M03 A303 RMK A01 T01281033  RH  032%=      5-min Rain = 0
KTH1 012210Z 01012KT 13/M04 A303 RMK A01 T01271035  RH  032%=      5-min Rain = 0
KTH1 012211Z 01010KT 13/M03 A303 RMK A01 T01261034  RH  033%=      5-min Rain = 0
KTH1 012212Z 01008KT 13/M04 A303 RMK A01 T01261035  RH  032%=      5-min Rain = 0
KTH1 012213Z 01008KT 13/M03 A303 RMK A01 T01271031  RH  033%=      5-min Rain = 0
KTH1 012214Z 00010G17KT 13/M03 A303 RMK A01 T01271029  RH  033%=      5-min Rain = 0
KTH1 012215Z 00012KT 13/M03 A303 RMK A01 T01281034  RH  032%=      5-min Rain = 0
KTH1 012216Z 02011G16KT 13/M04 A303 RMK A01 T01271035  RH  032%=      5-min Rain = 0
KTH1 012217Z 03010G16KT 13/M03 A303 RMK A01 T01281031  RH  033%=      5-min Rain = 0
KTH1 012218Z 02014KT 13/M04 A303 RMK A01 T01291036  RH  032%=      5-min Rain = 0
KTH1 012219Z 01014KT 13/M04 A303 RMK A01 T01271038  RH  032%=      5-min Rain = 0
KTH1 012220Z 01011KT 13/M04 A303 RMK A01 T01251038  RH  032%=      5-min Rain = 0
KTH1 012221Z 01012KT 12/M04 A303 RMK A01 T01241038  RH  032%=      5-min Rain = 0
KTH1 012222Z 01012KT 13/M03 A303 RMK A01 T01251034  RH  033%=      5-min Rain = 0
KTH1 012223Z 02011KT 13/M03 A303 RMK A01 T01261032  RH  033%=      5-min Rain = 0
KTH1 012224Z 02012KT 13/M03 A303 RMK A01 T01261030  RH  034%=      5-min Rain = 0
KTH1 012225Z 01012KT 13/M03 A303 RMK A01 T01261029  RH  034%=      5-min Rain = 0
KTH1 012226Z 35012KT 13/M03 A303 RMK A01 T01261025  RH  035%=      5-min Rain = 0
KTH1 012227Z 35011KT 13/M02 A303 RMK A01 T01271024  RH  035%=      5-min Rain = 0
KTH1 012228Z 35008KT 13/M02 A303 RMK A01 T01271022  RH  035%=      5-min Rain = 0
KTH1 012229Z 34011G18KT 13/M02 A303 RMK A01 T01271022  RH  035%=      5-min Rain = 0
KTH1 012230Z 34012G17KT 13/M02 A303 RMK A01 T01281023  RH  035%=      5-min Rain = 0
KTH1 012231Z 34011KT 13/M03 A3031 RMK A01 T01281025  RH  035%=      5-min Rain = 0
KTH1 012232Z 34007G18KT 13/M02 A3031 RMK A01 T01271022  RH  035%=      5-min Rain = 0
KTH1 012233Z 35010KT 13/M02 A303 RMK A01 T01281019  RH  036%=      5-min Rain = 0
KTH1 012234Z 35013KT 13/M02 A3031 RMK A01 T01281016  RH  037%=      5-min Rain = 0
KTH1 012235Z 34014KT 13/M02 A3031 RMK A01 T01271017  RH  037%=      5-min Rain = 0
KTH1 012236Z 34013KT 12/M02 A3031 RMK A01 T01231019  RH  037%=      5-min Rain = 0
KTH1 012237Z 34008KT 12/M02 A3031 RMK A01 T01201019  RH  038%=      5-min Rain = 0
KTH1 012238Z 36008G14KT 12/M02 A3031 RMK A01 T01181017  RH  039%=      5-min Rain = 0
KTH1 012239Z 35013KT 12/M02 A3031 RMK A01 T01181018  RH  039%=      5-min Rain = 0
KTH1 012240Z 34012KT 12/M02 A3031 RMK A01 T01171018  RH  039%=      5-min Rain = 0
KTH1 012241Z 33009KT 12/M02 A3031 RMK A01 T01181016  RH  039%=      5-min Rain = 0
KTH1 012242Z 34012G17KT 12/M01 A3031 RMK A01 T01201014  RH  039%=      5-min Rain = 0
KTH1 012243Z 34010G15KT 12/M02 A3031 RMK A01 T01211016  RH  038%=      5-min Rain = 0
KTH1 012244Z 33010KT 12/M02 A3031 RMK A01 T01221017  RH  038%=      5-min Rain = 0
KTH1 012245Z 34008KT 12/M02 A3031 RMK A01 T01231015  RH  038%=      5-min Rain = 0
KTH1 012246Z 35008KT 12/M02 A3031 RMK A01 T01241016  RH  038%=      5-min Rain = 0
KTH1 012247Z 34010KT 12/M02 A3031 RMK A01 T01241016  RH  038%=      5-min Rain = 0
KTH1 012248Z 34014G19KT 12/M02 A3031 RMK A01 T01241017  RH  037%=      5-min Rain = 0
KTH1 012249Z 34011KT 12/M02 A3031 RMK A01 T01221019  RH  037%=      5-min Rain = 0
KTH1 012250Z 33010KT 12/M02 A3031 RMK A01 T01221018  RH  038%=      5-min Rain = 0
KTH1 012251Z 34011G17KT 12/M02 A3031 RMK A01 T01221017  RH  038%=      5-min Rain = 0
KTH1 012252Z 34014KT 12/M02 A303 RMK A01 T01211019  RH  038%=      5-min Rain = 0
KTH1 012253Z 33014G19KT 12/M02 A3031 RMK A01 T01201018  RH  038%=      5-min Rain = 0
KTH1 012254Z 34013G18KT 12/M02 A3031 RMK A01 T01191021  RH  038%=      5-min Rain = 0
KTH1 012255Z 34013KT 12/M02 A3031 RMK A01 T01171023  RH  038%=      5-min Rain = 0
KTH1 012256Z 34015G20KT 11/M02 A3031 RMK A01 T01141024  RH  038%=      5-min Rain = 0
KTH1 012257Z 35015KT 11/M02 A3031 RMK A01 T01131024  RH  038%=      5-min Rain = 0
KTH1 012258Z 35013KT 11/M02 A3031 RMK A01 T01121024  RH  038%=      5-min Rain = 0
KTH1 012259Z 35012G17KT 11/M02 A3031 RMK A01 T01121024  RH  039%=      5-min Rain = 0
KTH1 012300Z 35013G19KT 11/M02 A3031 RMK A01 T01141023  RH  038%=      5-min Rain = 0
KTH1 012301Z 35012KT 12/M02 A3031 RMK A01 T01151024  RH  038%=      5-min Rain = 0
KTH1 012302Z 34014KT 12/M02 A303 RMK A01 T01161024  RH  037%=      5-min Rain = 0
KTH1 012303Z 35010KT 12/M02 A303 RMK A01 T01171023  RH  037%=      5-min Rain = 0
KTH1 012304Z 36011KT 12/M02 A303 RMK A01 T01181024  RH  037%=      5-min Rain = 0
KTH1 012305Z 36011G16KT 12/M02 A303 RMK A01 T01191023  RH  037%=      5-min Rain = 0
KTH1 012306Z 35007KT 12/M02 A303 RMK A01 T01201021  RH  037%=      5-min Rain = 0
KTH1 012307Z 36009KT 12/M02 A303 RMK A01 T01211018  RH  038%=      5-min Rain = 0
KTH1 012308Z 34009KT 12/M02 A303 RMK A01 T01211021  RH  037%=      5-min Rain = 0
KTH1 012309Z 35012G17KT 12/M02 A303 RMK A01 T01191023  RH  037%=      5-min Rain = 0
KTH1 012310Z 35014KT 12/M03 A303 RMK A01 T01161027  RH  037%=      5-min Rain = 0
KTH1 012311Z 34012G17KT 11/M03 A303 RMK A01 T01141027  RH  037%=      5-min Rain = 0
KTH1 012312Z 36011KT 11/M03 A3031 RMK A01 T01131027  RH  037%=      5-min Rain = 0
KTH1 012313Z 36006G11KT 11/M03 A3031 RMK A01 T01121025  RH  038%=      5-min Rain = 0
KTH1 012314Z 35011G17KT 11/M02 A3031 RMK A01 T01131024  RH  038%=      5-min Rain = 0
KTH1 012315Z 35011KT 12/M03 A3031 RMK A01 T01151027  RH  037%=      5-min Rain = 0
KTH1 012316Z 35010G16KT 12/M03 A3031 RMK A01 T01171026  RH  037%=      5-min Rain = 0
KTH1 012317Z 35015KT 12/M03 A3031 RMK A01 T01181027  RH  036%=      5-min Rain = 0
KTH1 012318Z 36011KT 12/M03 A3031 RMK A01 T01181026  RH  036%=      5-min Rain = 0
KTH1 012319Z 36013KT 12/M03 A3031 RMK A01 T01191027  RH  036%=      5-min Rain = 0
KTH1 012320Z 36011G17KT 12/M03 A3031 RMK A01 T01191028  RH  036%=      5-min Rain = 0
KTH1 012321Z 00009KT 12/M03 A3031 RMK A01 T01191028  RH  036%=      5-min Rain = 0
KTH1 012322Z 35010KT 12/M03 A3031 RMK A01 T01191027  RH  036%=      5-min Rain = 0
KTH1 012323Z 35007KT 12/M03 A3031 RMK A01 T01191026  RH  036%=      5-min Rain = 0
KTH1 012324Z 35010G16KT 12/M03 A3031 RMK A01 T01191026  RH  036%=      5-min Rain = 0
KTH1 012325Z 00011G17KT 12/M03 A303 RMK A01 T01181030  RH  035%=      5-min Rain = 0
KTH1 012326Z 35014KT 12/M03 A303 RMK A01 T01171034  RH  035%=      5-min Rain = 0
KTH1 012327Z 35011KT 12/M04 A303 RMK A01 T01171035  RH  035%=      5-min Rain = 0
KTH1 012328Z 35010KT 12/M03 A303 RMK A01 T01161034  RH  035%=      5-min Rain = 0
KTH1 012329Z 36010G17KT 12/M03 A303 RMK A01 T01161031  RH  036%=      5-min Rain = 0
KTH1 012330Z 35010KT 12/M03 A303 RMK A01 T01161033  RH  035%=      5-min Rain = 0
KTH1 012331Z 35010KT 12/M03 A303 RMK A01 T01171032  RH  035%=      5-min Rain = 0
KTH1 012332Z 36009KT 12/M03 A303 RMK A01 T01181031  RH  035%=      5-min Rain = 0
KTH1 012333Z 00007KT 12/M03 A303 RMK A01 T01191031  RH  035%=      5-min Rain = 0
KTH1 012334Z 35012KT 12/M03 A303 RMK A01 T01191030  RH  035%=      5-min Rain = 0
KTH1 012335Z 36012KT 12/M03 A303 RMK A01 T01191030  RH  035%=      5-min Rain = 0
KTH1 012336Z 35013KT 12/M03 A303 RMK A01 T01171029  RH  036%=      5-min Rain = 0
KTH1 012337Z 35012KT 12/M03 A3031 RMK A01 T01171027  RH  037%=      5-min Rain = 0
KTH1 012338Z 35012KT 12/M03 A3031 RMK A01 T01161026  RH  037%=      5-min Rain = 0
KTH1 012339Z 34011KT 12/M02 A3031 RMK A01 T01161024  RH  038%=      5-min Rain = 0
KTH1 012340Z 35013KT 12/M02 A3031 RMK A01 T01161023  RH  038%=      5-min Rain = 0
KTH1 012341Z 35010KT 12/M02 A3031 RMK A01 T01151022  RH  039%=      5-min Rain = 0
KTH1 012342Z 35014KT 11/M02 A3031 RMK A01 T01131021  RH  039%=      5-min Rain = 0
KTH1 012343Z 36012G17KT 11/M02 A3031 RMK A01 T01121022  RH  039%=      5-min Rain = 0
KTH1 012344Z 35011G16KT 11/M02 A3031 RMK A01 T01111021  RH  040%=      5-min Rain = 0
KTH1 012345Z 34011KT 11/M02 A3031 RMK A01 T01101021  RH  040%=      5-min Rain = 0
KTH1 012346Z 34008G14KT 11/M02 A3031 RMK A01 T01101021  RH  040%=      5-min Rain = 0
KTH1 012347Z 34010KT 11/M02 A3031 RMK A01 T01101021  RH  040%=      5-min Rain = 0
KTH1 012348Z 34011KT 11/M02 A3031 RMK A01 T01111020  RH  040%=      5-min Rain = 0
KTH1 012349Z 34012G17KT 11/M02 A3031 RMK A01 T01111022  RH  039%=      5-min Rain = 0
KTH1 012350Z 34011G17KT 11/M02 A3031 RMK A01 T01111023  RH  039%=      5-min Rain = 0
KTH1 012351Z 34010G15KT 11/M02 A3031 RMK A01 T01111022  RH  039%=      5-min Rain = 0
KTH1 012352Z 34011KT 11/M02 A3031 RMK A01 T01111022  RH  039%=      5-min Rain = 0
KTH1 012353Z 34013KT 11/M02 A3031 RMK A01 T01111023  RH  039%=      5-min Rain = 0
KTH1 012354Z 34011G16KT 11/M02 A3031 RMK A01 T01111024  RH  039%=      5-min Rain = 0
KTH1 012355Z 34010G15KT 11/M02 A3031 RMK A01 T01101023  RH  039%=      5-min Rain = 0
KTH1 012356Z 34011KT 11/M02 A3031 RMK A01 T01111022  RH  039%=      5-min Rain = 0
KTH1 012357Z 35011KT 11/M02 A3031 RMK A01 T01111022  RH  040%=      5-min Rain = 0
KTH1 012358Z 35009KT 11/M02 A3031 RMK A01 T01101021  RH  040%=      5-min Rain = 0
KTH1 012359Z 34010KT 11/M02 A3032 RMK A01 T01101022  RH  040%=      5-min Rain = 0
KTH1 020000Z 33008KT 11/M02 A3032 RMK A01 T01101022  RH  040%=      5-min Rain = 0
KTH1 020001Z 34009KT 11/M02 A3032 RMK A01 T01101022  RH  040%=      5-min Rain = 0
KTH1 020002Z 35011KT 11/M02 A3032 RMK A01 T01091023  RH  040%=      5-min Rain = 0
KTH1 020003Z 34010KT 11/M02 A3032 RMK A01 T01091023  RH  039%=      5-min Rain = 0
KTH1 020004Z 34010G15KT 11/M02 A3032 RMK A01 T01091023  RH  040%=      5-min Rain = 0
KTH1 020005Z 34009KT 11/M02 A3032 RMK A01 T01091024  RH  039%=      5-min Rain = 0
KTH1 020006Z 35012G17KT 11/M02 A3032 RMK A01 T01081023  RH  040%=      5-min Rain = 0
KTH1 020007Z 34015KT 11/M02 A3032 RMK A01 T01081023  RH  040%=      5-min Rain = 0
KTH1 020008Z 33010KT 11/M03 A3032 RMK A01 T01071025  RH  040%=      5-min Rain = 0
KTH1 020009Z 34010G15KT 11/M02 A3032 RMK A01 T01061024  RH  040%=      5-min Rain = 0
KTH1 020010Z 34010G15KT 11/M02 A3032 RMK A01 T01051023  RH  041%=      5-min Rain = 0
KTH1 020011Z 34012G17KT 10/M03 A3032 RMK A01 T01041025  RH  040%=      5-min Rain = 0
KTH1 020012Z 34008KT 10/M02 A3032 RMK A01 T01041023  RH  041%=      5-min Rain = 0
KTH1 020013Z 34010G15KT 10/M02 A3032 RMK A01 T01031022  RH  041%=      5-min Rain = 0
KTH1 020014Z 34010KT 10/M02 A3032 RMK A01 T01031024  RH  041%=      5-min Rain = 0
KTH1 020015Z 33009KT 10/M02 A3032 RMK A01 T01021024  RH  041%=      5-min Rain = 0
KTH1 020016Z 33011KT 10/M02 A3032 RMK A01 T01021024  RH  041%=      5-min Rain = 0
KTH1 020017Z 34009KT 10/M02 A3032 RMK A01 T01011024  RH  041%=      5-min Rain = 0
KTH1 020018Z 34008KT 10/M02 A3032 RMK A01 T01011024  RH  041%=      5-min Rain = 0
KTH1 020019Z 34008KT 10/M02 A3032 RMK A01 T01001023  RH  042%=      5-min Rain = 0
KTH1 020020Z 34007KT 10/M02 A3032 RMK A01 T01001023  RH  042%=      5-min Rain = 0
KTH1 020021Z 33009KT 10/M02 A3032 RMK A01 T00991021  RH  043%=      5-min Rain = 0
KTH1 020022Z 33009KT 10/M02 A3032 RMK A01 T00991023  RH  042%=      5-min Rain = 0
KTH1 020023Z 33009KT 10/M02 A3033 RMK A01 T00991023  RH  042%=      5-min Rain = 0
KTH1 020024Z 33008KT 10/M02 A3033 RMK A01 T00981024  RH  042%=      5-min Rain = 0
KTH1 020025Z 33011KT 10/M02 A3033 RMK A01 T00981022  RH  043%=      5-min Rain = 0
KTH1 020026Z 34010KT 10/M02 A3033 RMK A01 T00971024  RH  043%=      5-min Rain = 0
KTH1 020027Z 34010KT 10/M02 A3033 RMK A01 T00971024  RH  043%=      5-min Rain = 0
KTH1 020028Z 33010KT 10/M02 A3033 RMK A01 T00971024  RH  043%=      5-min Rain = 0
KTH1 020029Z 33010KT 10/M02 A3033 RMK A01 T00961024  RH  043%=      5-min Rain = 0
KTH1 020030Z 33009KT 10/M02 A3033 RMK A01 T00961024  RH  043%=      5-min Rain = 0
KTH1 020031Z 33010KT 10/M02 A3033 RMK A01 T00951024  RH  043%=      5-min Rain = 0
KTH1 020032Z 33011KT 10/M02 A3033 RMK A01 T00951023  RH  044%=      5-min Rain = 0
KTH1 020033Z 34011KT 10/M02 A3033 RMK A01 T00951023  RH  044%=      5-min Rain = 0
KTH1 020034Z 33010KT 09/M02 A3033 RMK A01 T00941024  RH  043%=      5-min Rain = 0
KTH1 020035Z 32009KT 09/M02 A3033 RMK A01 T00931022  RH  044%=      5-min Rain = 0
KTH1 020036Z 33011KT 09/M02 A3033 RMK A01 T00931021  RH  045%=      5-min Rain = 0
KTH1 020037Z 32010KT 09/M02 A3033 RMK A01 T00921023  RH  044%=      5-min Rain = 0
KTH1 020038Z 33010KT 09/M02 A3033 RMK A01 T00921023  RH  044%=      5-min Rain = 0
KTH1 020039Z 33012KT 09/M02 A3033 RMK A01 T00911024  RH  044%=      5-min Rain = 0
KTH1 020040Z 33010KT 09/M03 A3033 RMK A01 T00901025  RH  044%=      5-min Rain = 0
KTH1 020041Z 34011KT 09/M03 A3033 RMK A01 T00901025  RH  044%=      5-min Rain = 0
KTH1 020042Z 33012KT 09/M03 A3033 RMK A01 T00901027  RH  044%=      5-min Rain = 0
KTH1 020043Z 33012KT 09/M03 A3033 RMK A01 T00891028  RH  044%=      5-min Rain = 0
KTH1 020044Z 33011KT 09/M03 A3033 RMK A01 T00891028  RH  044%=      5-min Rain = 0
KTH1 020045Z 33010KT 09/M03 A3033 RMK A01 T00891027  RH  044%=      5-min Rain = 0
KTH1 020046Z 33011KT 09/M03 A3033 RMK A01 T00881027  RH  044%=      5-min Rain = 0
KTH1 020047Z 33010KT 09/M03 A3033 RMK A01 T00871027  RH  044%=      5-min Rain = 0
KTH1 020048Z 33011KT 09/M03 A3033 RMK A01 T00871026  RH  045%=      5-min Rain = 0
KTH1 020049Z 33010KT 09/M03 A3033 RMK A01 T00871028  RH  044%=      5-min Rain = 0
KTH1 020050Z 33011KT 09/M03 A3033 RMK A01 T00861026  RH  045%=      5-min Rain = 0
KTH1 020051Z 33010KT 09/M03 A3033 RMK A01 T00861026  RH  045%=      5-min Rain = 0
KTH1 020052Z 33010KT 09/M03 A3033 RMK A01 T00861027  RH  045%=      5-min Rain = 0
KTH1 020053Z 33009KT 09/M03 A3034 RMK A01 T00851028  RH  045%=      5-min Rain = 0
KTH1 020054Z 33009KT 09/M03 A3034 RMK A01 T00851028  RH  045%=      5-min Rain = 0
KTH1 020055Z 33009KT 09/M03 A3034 RMK A01 T00851027  RH  045%=      5-min Rain = 0
KTH1 020056Z 32010KT 09/M03 A3034 RMK A01 T00851028  RH  045%=      5-min Rain = 0
KTH1 020057Z 32009KT 09/M03 A3034 RMK A01 T00851027  RH  045%=      5-min Rain = 0
KTH1 020058Z 33008KT 08/M03 A3034 RMK A01 T00841026  RH  046%=      5-min Rain = 0
KTH1 020059Z 32008KT 08/M03 A3034 RMK A01 T00841025  RH  046%=      5-min Rain = 0
KTH1 020100Z 32008KT 08/M03 A3034 RMK A01 T00831027  RH  046%=      5-min Rain = 0
KTH1 020101Z 32008KT 08/M03 A3034 RMK A01 T00831025  RH  046%=      5-min Rain = 0
KTH1 020102Z 32008KT 08/M02 A3034 RMK A01 T00831024  RH  047%=      5-min Rain = 0
KTH1 020103Z 32009KT 08/M02 A3034 RMK A01 T00821024  RH  047%=      5-min Rain = 0
KTH1 020104Z 32008KT 08/M02 A3034 RMK A01 T00821024  RH  047%=      5-min Rain = 0
KTH1 020105Z 32008KT 08/M03 A3034 RMK A01 T00821027  RH  046%=      5-min Rain = 0
KTH1 020106Z 32008KT 08/M03 A3034 RMK A01 T00821027  RH  046%=      5-min Rain = 0
KTH1 020107Z 32009KT 08/M03 A3034 RMK A01 T00821027  RH  046%=      5-min Rain = 0
KTH1 020108Z 32008KT 08/M03 A3034 RMK A01 T00821027  RH  046%=      5-min Rain = 0
KTH1 020109Z 32008KT 08/M02 A3034 RMK A01 T00821024  RH  047%=      5-min Rain = 0
KTH1 020110Z 32008KT 08/M03 A3034 RMK A01 T00811026  RH  047%=      5-min Rain = 0
KTH1 020111Z 32008KT 08/M03 A3034 RMK A01 T00811026  RH  047%=      5-min Rain = 0
KTH1 020112Z 32009KT 08/M03 A3034 RMK A01 T00811027  RH  047%=      5-min Rain = 0
KTH1 020113Z 32008KT 08/M03 A3034 RMK A01 T00811026  RH  047%=      5-min Rain = 0
KTH1 020114Z 32008KT 08/M02 A3034 RMK A01 T00801022  RH  048%=      5-min Rain = 0
KTH1 020115Z 32008KT 08/M02 A3034 RMK A01 T00811022  RH  048%=      5-min Rain = 0
KTH1 020116Z 32008KT 08/M02 A3034 RMK A01 T00801021  RH  049%=      5-min Rain = 0
KTH1 020117Z 32009KT 08/M02 A3034 RMK A01 T00801021  RH  049%=      5-min Rain = 0
KTH1 020118Z 32007KT 08/M02 A3034 RMK A01 T00801023  RH  048%=      5-min Rain = 0
KTH1 020119Z 32009KT 08/M02 A3034 RMK A01 T00801024  RH  048%=      5-min Rain = 0
KTH1 020120Z 32008KT 08/M02 A3034 RMK A01 T00791024  RH  048%=      5-min Rain = 0
KTH1 020121Z 32008KT 08/M02 A3034 RMK A01 T00791023  RH  049%=      5-min Rain = 0
KTH1 020122Z 31008KT 08/M02 A3034 RMK A01 T00791022  RH  049%=      5-min Rain = 0
KTH1 020123Z 32008KT 08/M02 A3034 RMK A01 T00791019  RH  050%=      5-min Rain = 0
KTH1 020124Z 31008KT 08/M02 A3034 RMK A01 T00791021  RH  049%=      5-min Rain = 0
KTH1 020125Z 31008KT 08/M02 A3034 RMK A01 T00791019  RH  050%=      5-min Rain = 0
KTH1 020126Z 31007KT 08/M02 A3034 RMK A01 T00781017  RH  051%=      5-min Rain = 0
KTH1 020127Z 31008KT 08/M02 A3034 RMK A01 T00781015  RH  052%=      5-min Rain = 0
KTH1 020128Z 31007KT 08/M02 A3034 RMK A01 T00781020  RH  050%=      5-min Rain = 0
KTH1 020129Z 32008KT 08/M02 A3034 RMK A01 T00771018  RH  051%=      5-min Rain = 0
KTH1 020130Z 31007KT 08/M02 A3034 RMK A01 T00771018  RH  051%=      5-min Rain = 0
KTH1 020131Z 32008KT 08/M02 A3034 RMK A01 T00771017  RH  051%=      5-min Rain = 0
KTH1 020132Z 31007KT 08/M02 A3034 RMK A01 T00761017  RH  052%=      5-min Rain = 0
KTH1 020133Z 32008KT 08/M02 A3035 RMK A01 T00761017  RH  052%=      5-min Rain = 0
KTH1 020134Z 31008KT 08/M02 A3035 RMK A01 T00761018  RH  051%=      5-min Rain = 0
KTH1 020135Z 31008KT 08/M02 A3035 RMK A01 T00751018  RH  052%=      5-min Rain = 0
KTH1 020136Z 31008KT 08/M02 A3035 RMK A01 T00751018  RH  052%=      5-min Rain = 0
KTH1 020137Z 31008KT 08/M02 A3035 RMK A01 T00751017  RH  052%=      5-min Rain = 0
KTH1 020138Z 31008KT 08/M02 A3035 RMK A01 T00751016  RH  053%=      5-min Rain = 0
KTH1 020139Z 31008KT 07/M02 A3035 RMK A01 T00741018  RH  052%=      5-min Rain = 0
KTH1 020140Z 30008KT 07/M02 A3035 RMK A01 T00741018  RH  052%=      5-min Rain = 0
KTH1 020141Z 31008KT 07/M02 A3035 RMK A01 T00741017  RH  052%=      5-min Rain = 0
KTH1 020142Z 30008KT 07/M02 A3035 RMK A01 T00731018  RH  052%=      5-min Rain = 0
KTH1 020143Z 30007KT 07/M02 A3035 RMK A01 T00731019  RH  052%=      5-min Rain = 0
KTH1 020144Z 30007KT 07/M02 A3035 RMK A01 T00731019  RH  052%=      5-min Rain = 0
KTH1 020145Z 31008KT 07/M02 A3035 RMK A01 T00731017  RH  053%=      5-min Rain = 0
KTH1 020146Z 31008KT 07/M02 A3035 RMK A01 T00731018  RH  053%=      5-min Rain = 0
KTH1 020147Z 31008KT 07/M02 A3035 RMK A01 T00731018  RH  052%=      5-min Rain = 0
KTH1 020148Z 31008KT 07/M02 A3035 RMK A01 T00731015  RH  054%=      5-min Rain = 0
KTH1 020149Z 31008KT 07/M02 A3035 RMK A01 T00731020  RH  052%=      5-min Rain = 0
KTH1 020150Z 31008KT 07/M02 A3035 RMK A01 T00731021  RH  051%=      5-min Rain = 0
KTH1 020151Z 31008KT 07/M02 A3035 RMK A01 T00721019  RH  052%=      5-min Rain = 0
KTH1 020152Z 31009KT 07/M02 A3035 RMK A01 T00721021  RH  052%=      5-min Rain = 0
KTH1 020153Z 31008KT 07/M02 A3035 RMK A01 T00721022  RH  051%=      5-min Rain = 0
KTH1 020154Z 31008KT 07/M02 A3035 RMK A01 T00711019  RH  053%=      5-min Rain = 0
KTH1 020155Z 31008KT 07/M02 A3035 RMK A01 T00711018  RH  053%=      5-min Rain = 0
KTH1 020156Z 31009KT 07/M02 A3035 RMK A01 T00711018  RH  053%=      5-min Rain = 0
KTH1 020157Z 31008KT 07/M02 A3035 RMK A01 T00711019  RH  053%=      5-min Rain = 0
KTH1 020158Z 31008KT 07/M02 A3035 RMK A01 T00701021  RH  052%=      5-min Rain = 0
KTH1 020159Z 31008KT 07/M02 A3035 RMK A01 T00701021  RH  052%=      5-min Rain = 0
KTH1 020200Z 31007KT 07/M02 A3035 RMK A01 T00701020  RH  053%=      5-min Rain = 0
KTH1 020201Z 31007KT 07/M02 A3035 RMK A01 T00701018  RH  053%=      5-min Rain = 0
KTH1 020202Z 31007KT 07/M02 A3035 RMK A01 T00701018  RH  053%=      5-min Rain = 0
KTH1 020203Z 31007KT 07/M02 A3035 RMK A01 T00701020  RH  053%=      5-min Rain = 0
KTH1 020204Z 31007KT 07/M02 A3035 RMK A01 T00701022  RH  052%=      5-min Rain = 0
KTH1 020205Z 31007KT 07/M02 A3035 RMK A01 T00701020  RH  053%=      5-min Rain = 0
KTH1 020206Z 32006KT 07/M02 A3035 RMK A01 T00691020  RH  053%=      5-min Rain = 0
KTH1 020207Z 32006KT 07/M02 A3035 RMK A01 T00701020  RH  053%=      5-min Rain = 0
KTH1 020208Z 31006KT 07/M02 A3035 RMK A01 T00691019  RH  053%=      5-min Rain = 0
KTH1 020209Z 32006KT 07/M02 A3035 RMK A01 T00701017  RH  054%=      5-min Rain = 0
KTH1 020210Z 32006KT 07/M02 A3035 RMK A01 T00691019  RH  053%=      5-min Rain = 0
KTH1 020211Z 32006KT 07/M02 A3035 RMK A01 T00691022  RH  052%=      5-min Rain = 0
KTH1 020212Z 32006KT 07/M02 A3035 RMK A01 T00701023  RH  052%=      5-min Rain = 0
KTH1 020213Z 32007KT 07/M03 A3035 RMK A01 T00691026  RH  051%=      5-min Rain = 0
KTH1 020214Z 33006KT 07/M03 A3035 RMK A01 T00701029  RH  049%=      5-min Rain = 0
KTH1 020215Z 33005KT 07/M03 A3035 RMK A01 T00701029  RH  049%=      5-min Rain = 0
KTH1 020216Z 33006KT 07/M03 A3035 RMK A01 T00701030  RH  049%=      5-min Rain = 0
KTH1 020217Z 33006KT 07/M03 A3035 RMK A01 T00701031  RH  049%=      5-min Rain = 0
KTH1 020218Z 33006KT 07/M03 A3035 RMK A01 T00701032  RH  048%=      5-min Rain = 0
KTH1 020219Z 32006KT 07/M03 A3035 RMK A01 T00701030  RH  049%=      5-min Rain = 0
KTH1 020220Z 32007KT 07/M03 A3035 RMK A01 T00711029  RH  049%=      5-min Rain = 0
KTH1 020221Z 32006KT 07/M03 A3035 RMK A01 T00701031  RH  048%=      5-min Rain = 0
KTH1 020222Z 32006KT 07/M03 A3035 RMK A01 T00711030  RH  049%=      5-min Rain = 0
KTH1 020223Z 32006KT 07/M03 A3035 RMK A01 T00711031  RH  048%=      5-min Rain = 0
KTH1 020224Z 32006KT 07/M03 A3035 RMK A01 T00711028  RH  049%=      5-min Rain = 0
KTH1 020225Z 32006KT 07/M03 A3036 RMK A01 T00711028  RH  050%=      5-min Rain = 0
KTH1 020226Z 32006KT 07/M03 A3036 RMK A01 T00711029  RH  049%=      5-min Rain = 0
KTH1 020227Z 32006KT 07/M03 A3036 RMK A01 T00711025  RH  050%=      5-min Rain = 0
KTH1 020228Z 32006KT 07/M02 A3036 RMK A01 T00711020  RH  052%=      5-min Rain = 0
KTH1 020229Z 31006KT 07/M02 A3036 RMK A01 T00711019  RH  053%=      5-min Rain = 0
KTH1 020230Z 31006KT 07/M02 A3036 RMK A01 T00711019  RH  053%=      5-min Rain = 0
KTH1 020231Z 31005KT 07/M02 A3036 RMK A01 T00711018  RH  053%=      5-min Rain = 0
KTH1 020232Z 31006KT 07/M02 A3036 RMK A01 T00711019  RH  053%=      5-min Rain = 0
KTH1 020233Z 30005KT 07/M02 A3036 RMK A01 T00711021  RH  052%=      5-min Rain = 0
KTH1 020234Z 30005KT 07/M02 A3036 RMK A01 T00711019  RH  053%=      5-min Rain = 0
KTH1 020235Z 31005KT 07/M02 A3036 RMK A01 T00711020  RH  052%=      5-min Rain = 0
KTH1 020236Z 31005KT 07/M02 A3036 RMK A01 T00711020  RH  052%=      5-min Rain = 0
KTH1 020237Z 30006KT 07/M02 A3036 RMK A01 T00711020  RH  053%=      5-min Rain = 0
KTH1 020238Z 31005KT 07/M02 A3036 RMK A01 T00701019  RH  053%=      5-min Rain = 0
KTH1 020239Z 30006KT 07/M02 A3036 RMK A01 T00701020  RH  052%=      5-min Rain = 0
KTH1 020240Z 30006KT 07/M02 A3036 RMK A01 T00701021  RH  052%=      5-min Rain = 0
KTH1 020241Z 30006KT 07/M02 A3036 RMK A01 T00711019  RH  053%=      5-min Rain = 0
KTH1 020242Z 30007KT 07/M02 A3036 RMK A01 T00701019  RH  053%=      5-min Rain = 0
KTH1 020243Z 30007KT 07/M02 A3036 RMK A01 T00701021  RH  052%=      5-min Rain = 0
KTH1 020244Z 30006KT 07/M02 A3036 RMK A01 T00701021  RH  052%=      5-min Rain = 0
KTH1 020245Z 29006KT 07/M02 A3036 RMK A01 T00701023  RH  052%=      5-min Rain = 0
KTH1 020246Z 29006KT 07/M02 A3036 RMK A01 T00701019  RH  053%=      5-min Rain = 0
KTH1 020247Z 29006KT 07/M02 A3036 RMK A01 T00701020  RH  053%=      5-min Rain = 0
KTH1 020248Z 29005KT 07/M02 A3036 RMK A01 T00701020  RH  053%=      5-min Rain = 0
KTH1 020249Z 29006KT 07/M02 A3036 RMK A01 T00701020  RH  052%=      5-min Rain = 0
KTH1 020250Z 29006KT 07/M02 A3036 RMK A01 T00701019  RH  053%=      5-min Rain = 0
KTH1 020251Z 29007KT 07/M02 A3036 RMK A01 T00701019  RH  053%=      5-min Rain = 0
KTH1 020252Z 30007KT 07/M02 A3036 RMK A01 T00701023  RH  052%=      5-min Rain = 0
KTH1 020253Z 30006KT 07/M02 A3036 RMK A01 T00711023  RH  051%=      5-min Rain = 0
KTH1 020254Z 30007KT 07/M02 A3036 RMK A01 T00711022  RH  052%=      5-min Rain = 0
KTH1 020255Z 30006KT 07/M02 A3036 RMK A01 T00721018  RH  053%=      5-min Rain = 0
KTH1 020256Z 30006KT 07/M02 A3036 RMK A01 T00721018  RH  053%=      5-min Rain = 0
KTH1 020257Z 30006KT 07/M02 A3036 RMK A01 T00721019  RH  053%=      5-min Rain = 0
KTH1 020258Z 30006KT 07/M02 A3036 RMK A01 T00721022  RH  051%=      5-min Rain = 0
KTH1 020259Z 30005KT 07/M02 A3036 RMK A01 T00721023  RH  051%=      5-min Rain = 0
KTH1 020300Z 31005KT 07/M02 A3036 RMK A01 T00721018  RH  053%=      5-min Rain = 0
KTH1 020301Z 30006KT 07/M02 A3036 RMK A01 T00721020  RH  052%=      5-min Rain = 0
KTH1 020302Z 31005KT 07/M02 A3036 RMK A01 T00721022  RH  051%=      5-min Rain = 0
KTH1 020303Z 31005KT 07/M02 A3036 RMK A01 T00721019  RH  052%=      5-min Rain = 0
KTH1 020304Z 31005KT 07/M02 A3036 RMK A01 T00721020  RH  052%=      5-min Rain = 0
KTH1 020305Z 31004KT 07/M02 A3036 RMK A01 T00721020  RH  052%=      5-min Rain = 0
KTH1 020306Z 31004KT 07/M02 A3036 RMK A01 T00731017  RH  053%=      5-min Rain = 0
KTH1 020307Z 32005KT 07/M02 A3036 RMK A01 T00721017  RH  053%=      5-min Rain = 0
KTH1 020308Z 32004KT 07/M02 A3036 RMK A01 T00721016  RH  054%=      5-min Rain = 0
KTH1 020309Z 32005KT 07/M02 A3036 RMK A01 T00721018  RH  053%=      5-min Rain = 0
KTH1 020310Z 32005KT 07/M02 A3036 RMK A01 T00721020  RH  052%=      5-min Rain = 0
KTH1 020311Z 32005KT 07/M02 A3036 RMK A01 T00721024  RH  051%=      5-min Rain = 0
KTH1 020312Z 32005KT 07/M03 A3036 RMK A01 T00721025  RH  050%=      5-min Rain = 0
KTH1 020313Z 32005KT 07/M02 A3036 RMK A01 T00721022  RH  051%=      5-min Rain = 0
KTH1 020314Z 32005KT 07/M02 A3036 RMK A01 T00721020  RH  052%=      5-min Rain = 0
KTH1 020315Z 32006KT 07/M02 A3036 RMK A01 T00721024  RH  051%=      5-min Rain = 0
KTH1 020316Z 31006KT 07/M02 A3036 RMK A01 T00721020  RH  052%=      5-min Rain = 0
KTH1 020317Z 31006KT 07/M02 A3036 RMK A01 T00711019  RH  052%=      5-min Rain = 0
KTH1 020318Z 31005KT 07/M02 A3036 RMK A01 T00711018  RH  053%=      5-min Rain = 0
KTH1 020319Z 31005KT 07/M02 A3036 RMK A01 T00721015  RH  054%=      5-min Rain = 0
KTH1 020320Z 31006KT 07/M02 A3036 RMK A01 T00711016  RH  054%=      5-min Rain = 0
KTH1 020321Z 31006KT 07/M02 A3036 RMK A01 T00711017  RH  054%=      5-min Rain = 0
KTH1 020322Z 32006KT 07/M02 A3036 RMK A01 T00711018  RH  053%=      5-min Rain = 0
KTH1 020323Z 32005KT 07/M02 A3036 RMK A01 T00711017  RH  054%=      5-min Rain = 0
KTH1 020324Z 32005KT 07/M02 A3036 RMK A01 T00711015  RH  054%=      5-min Rain = 0
KTH1 020325Z 32005KT 07/M02 A3036 RMK A01 T00711015  RH  054%=      5-min Rain = 0
KTH1 020326Z 32006KT 07/M02 A3036 RMK A01 T00711016  RH  054%=      5-min Rain = 0
KTH1 020327Z 32005KT 07/M02 A3036 RMK A01 T00711018  RH  053%=      5-min Rain = 0
KTH1 020328Z 32006KT 07/M02 A3036 RMK A01 T00711019  RH  053%=      5-min Rain = 0
KTH1 020329Z 32005KT 07/M02 A3036 RMK A01 T00711017  RH  053%=      5-min Rain = 0
KTH1 020330Z 32005KT 07/M02 A3036 RMK A01 T00711016  RH  054%=      5-min Rain = 0
KTH1 020331Z 32005KT 07/M02 A3036 RMK A01 T00721020  RH  052%=      5-min Rain = 0
KTH1 020332Z 32006KT 07/M02 A3036 RMK A01 T00721022  RH  051%=      5-min Rain = 0
KTH1 020333Z 32005KT 07/M02 A3036 RMK A01 T00721022  RH  051%=      5-min Rain = 0
KTH1 020334Z 32005KT 07/M02 A3036 RMK A01 T00721021  RH  052%=      5-min Rain = 0
KTH1 020335Z 32005KT 07/M02 A3036 RMK A01 T00721022  RH  051%=      5-min Rain = 0
KTH1 020336Z 31005KT 07/M02 A3036 RMK A01 T00721021  RH  052%=      5-min Rain = 0
KTH1 020337Z 31006KT 07/M02 A3036 RMK A01 T00731020  RH  052%=      5-min Rain = 0
KTH1 020338Z 31006KT 07/M02 A3036 RMK A01 T00731022  RH  051%=      5-min Rain = 0
KTH1 020339Z 31006KT 07/M02 A3036 RMK A01 T00731020  RH  052%=      5-min Rain = 0
KTH1 020340Z 31005KT 07/M02 A3036 RMK A01 T00731015  RH  053%=      5-min Rain = 0
KTH1 020341Z 31005KT 07/M02 A3036 RMK A01 T00731016  RH  053%=      5-min Rain = 0
KTH1 020342Z 31005KT 07/M02 A3036 RMK A01 T00731015  RH  053%=      5-min Rain = 0
KTH1 020343Z 31005KT 07/M02 A3036 RMK A01 T00731015  RH  053%=      5-min Rain = 0
KTH1 020344Z 31004KT 07/M02 A3036 RMK A01 T00731015  RH  054%=      5-min Rain = 0
KTH1 020345Z 31004KT 07/M02 A3036 RMK A01 T00731017  RH  053%=      5-min Rain = 0
KTH1 020346Z 31004KT 07/M02 A3036 RMK A01 T00731018  RH  053%=      5-min Rain = 0
KTH1 020347Z 31004KT 07/M02 A3036 RMK A01 T00731017  RH  053%=      5-min Rain = 0
KTH1 020348Z 31005KT 07/M02 A3036 RMK A01 T00731017  RH  053%=      5-min Rain = 0
KTH1 020349Z 31004KT 07/M02 A3036 RMK A01 T00721018  RH  053%=      5-min Rain = 0
KTH1 020350Z 31004KT 07/M02 A3036 RMK A01 T00731016  RH  053%=      5-min Rain = 0
KTH1 020351Z 31004KT 07/M02 A3036 RMK A01 T00731019  RH  052%=      5-min Rain = 0
KTH1 020352Z 31004KT 07/M02 A3036 RMK A01 T00731018  RH  052%=      5-min Rain = 0
KTH1 020353Z 31004KT 07/M02 A3036 RMK A01 T00731020  RH  052%=      5-min Rain = 0
KTH1 020354Z 31004KT 07/M02 A3036 RMK A01 T00731020  RH  052%=      5-min Rain = 0
KTH1 020355Z 30004KT 07/M02 A3036 RMK A01 T00731017  RH  053%=      5-min Rain = 0
KTH1 020356Z 31004KT 07/M02 A3036 RMK A01 T00731020  RH  052%=      5-min Rain = 0
KTH1 020357Z 31004KT 07/M02 A3036 RMK A01 T00731019  RH  052%=      5-min Rain = 0
KTH1 020358Z 30004KT 07/M02 A3036 RMK A01 T00731021  RH  051%=      5-min Rain = 0
KTH1 020359Z 31005KT 07/M02 A3036 RMK A01 T00721022  RH  051%=      5-min Rain = 0
KTH1 020400Z 31004KT 07/M02 A3036 RMK A01 T00721021  RH  052%=      5-min Rain = 0
KTH1 020401Z 31004KT 07/M02 A3036 RMK A01 T00721020  RH  052%=      5-min Rain = 0
KTH1 020402Z 31004KT 07/M02 A3036 RMK A01 T00721021  RH  052%=      5-min Rain = 0
KTH1 020403Z 31004KT 07/M02 A3036 RMK A01 T00721016  RH  053%=      5-min Rain = 0
KTH1 020404Z 31003KT 07/M02 A3036 RMK A01 T00721015  RH  054%=      5-min Rain = 0
KTH1 020405Z 31003KT 07/M02 A3036 RMK A01 T00721018  RH  053%=      5-min Rain = 0
KTH1 020406Z 31004KT 07/M02 A3036 RMK A01 T00721017  RH  053%=      5-min Rain = 0
KTH1 020407Z 32004KT 07/M02 A3036 RMK A01 T00721015  RH  054%=      5-min Rain = 0
KTH1 020408Z 31004KT 07/M02 A3036 RMK A01 T00721018  RH  053%=      5-min Rain = 0
KTH1 020409Z 31004KT 07/M02 A3036 RMK A01 T00721018  RH  053%=      5-min Rain = 0
KTH1 020410Z 30004KT 07/M02 A3036 RMK A01 T00721017  RH  053%=      5-min Rain = 0
KTH1 020411Z 31004KT 07/M02 A3036 RMK A01 T00721016  RH  053%=      5-min Rain = 0
KTH1 020412Z 31005KT 07/M02 A3036 RMK A01 T00721017  RH  053%=      5-min Rain = 0
KTH1 020413Z 31006KT 07/M02 A3036 RMK A01 T00721015  RH  054%=      5-min Rain = 0
KTH1 020414Z 31005KT 07/M02 A3036 RMK A01 T00721017  RH  053%=      5-min Rain = 0
KTH1 020415Z 31006KT 07/M02 A3036 RMK A01 T00721016  RH  053%=      5-min Rain = 0
KTH1 020416Z 31006KT 07/M02 A3036 RMK A01 T00721015  RH  054%=      5-min Rain = 0
KTH1 020417Z 31007KT 07/M01 A3036 RMK A01 T00721014  RH  054%=      5-min Rain = 0
KTH1 020418Z 31007KT 07/M02 A3036 RMK A01 T00721018  RH  053%=      5-min Rain = 0
KTH1 020419Z 31007KT 07/M02 A3036 RMK A01 T00721018  RH  053%=      5-min Rain = 0
KTH1 020420Z 31007KT 07/M02 A3036 RMK A01 T00721016  RH  053%=      5-min Rain = 0
KTH1 020421Z 31007KT 07/M02 A3036 RMK A01 T00721016  RH  054%=      5-min Rain = 0
KTH1 020422Z 30007KT 07/M02 A3036 RMK A01 T00721018  RH  053%=      5-min Rain = 0
KTH1 020423Z 30006KT 07/M02 A3036 RMK A01 T00721022  RH  051%=      5-min Rain = 0
KTH1 020424Z 30006KT 07/M02 A3036 RMK A01 T00721019  RH  052%=      5-min Rain = 0
KTH1 020425Z 30005KT 07/M02 A3036 RMK A01 T00721020  RH  052%=      5-min Rain = 0
KTH1 020426Z 31004KT 07/M02 A3036 RMK A01 T00721019  RH  053%=      5-min Rain = 0
KTH1 020427Z 31003KT 07/M02 A3036 RMK A01 T00711018  RH  053%=      5-min Rain = 0
KTH1 020428Z 31003KT 07/M02 A3036 RMK A01 T00711017  RH  053%=      5-min Rain = 0
KTH1 020429Z 31002KT 07/M02 A3035 RMK A01 T00711018  RH  053%=      5-min Rain = 0
KTH1 020430Z 31003KT 07/M02 A3035 RMK A01 T00711018  RH  053%=      5-min Rain = 0
KTH1 020431Z 31003KT 07/M02 A3036 RMK A01 T00711019  RH  053%=      5-min Rain = 0
KTH1 020432Z 29002KT 07/M02 A3036 RMK A01 T00711019  RH  053%=      5-min Rain = 0
KTH1 020433Z 31003KT 07/M02 A3036 RMK A01 T00701018  RH  053%=      5-min Rain = 0
KTH1 020434Z 31002KT 07/M02 A3036 RMK A01 T00711021  RH  052%=      5-min Rain = 0
KTH1 020435Z 31003KT 07/M02 A3036 RMK A01 T00701022  RH  052%=      5-min Rain = 0
KTH1 020436Z 31003KT 07/M02 A3036 RMK A01 T00701022  RH  052%=      5-min Rain = 0
KTH1 020437Z 30003KT 07/M02 A3036 RMK A01 T00701024  RH  051%=      5-min Rain = 0
KTH1 020438Z 31002KT 07/M02 A3036 RMK A01 T00701022  RH  052%=      5-min Rain = 0
KTH1 020439Z 30003KT 07/M02 A3036 RMK A01 T00701024  RH  051%=      5-min Rain = 0
KTH1 020440Z 31003KT 07/M03 A3036 RMK A01 T00701025  RH  051%=      5-min Rain = 0
KTH1 020441Z 31003KT 07/M02 A3036 RMK A01 T00701024  RH  051%=      5-min Rain = 0
KTH1 020442Z 31003KT 07/M02 A3036 RMK A01 T00701022  RH  052%=      5-min Rain = 0
KTH1 020443Z 31003KT 07/M02 A3035 RMK A01 T00701023  RH  052%=      5-min Rain = 0
KTH1 020444Z 32003KT 07/M03 A3035 RMK A01 T00701025  RH  051%=      5-min Rain = 0
KTH1 020445Z 32003KT 07/M03 A3035 RMK A01 T00701029  RH  050%=      5-min Rain = 0
KTH1 020446Z 33002KT 07/M03 A3035 RMK A01 T00691030  RH  049%=      5-min Rain = 0
KTH1 020447Z 32003KT 07/M03 A3035 RMK A01 T00691031  RH  049%=      5-min Rain = 0
KTH1 020448Z 32002KT 07/M03 A3035 RMK A01 T00701032  RH  048%=      5-min Rain = 0
KTH1 020449Z 30002KT 07/M03 A3035 RMK A01 T00701033  RH  048%=      5-min Rain = 0
KTH1 020450Z 31003KT 07/M03 A3035 RMK A01 T00691032  RH  048%=      5-min Rain = 0
KTH1 020451Z 30003KT 07/M03 A3035 RMK A01 T00691031  RH  049%=      5-min Rain = 0
KTH1 020452Z 30003KT 07/M03 A3035 RMK A01 T00691031  RH  049%=      5-min Rain = 0
KTH1 020453Z 30003KT 07/M03 A3035 RMK A01 T00691030  RH  050%=      5-min Rain = 0
KTH1 020454Z 31003KT 07/M03 A3035 RMK A01 T00691026  RH  051%=      5-min Rain = 0
KTH1 020455Z 30004KT 07/M02 A3035 RMK A01 T00681023  RH  052%=      5-min Rain = 0
KTH1 020456Z 31005KT 07/M02 A3035 RMK A01 T00691020  RH  053%=      5-min Rain = 0
KTH1 020457Z 31005KT 07/M02 A3035 RMK A01 T00681022  RH  053%=      5-min Rain = 0
KTH1 020458Z 31005KT 07/M02 A3035 RMK A01 T00691022  RH  052%=      5-min Rain = 0
KTH1 020459Z 31005KT 07/M02 A3035 RMK A01 T00681022  RH  053%=      5-min Rain = 0
KTH1 020500Z 31005KT 07/M02 A3035 RMK A01 T00681019  RH  054%=      5-min Rain = 0
KTH1 020501Z 31005KT 07/M02 A3035 RMK A01 T00681021  RH  053%=      5-min Rain = 0
KTH1 020502Z 31005KT 07/M02 A3035 RMK A01 T00671023  RH  053%=      5-min Rain = 0
KTH1 020503Z 31005KT 07/M02 A3035 RMK A01 T00671022  RH  053%=      5-min Rain = 0
KTH1 020504Z 31005KT 07/M02 A3035 RMK A01 T00671020  RH  054%=      5-min Rain = 0
KTH1 020505Z 31005KT 07/M02 A3035 RMK A01 T00671020  RH  054%=      5-min Rain = 0
KTH1 020506Z 31006KT 07/M02 A3035 RMK A01 T00671019  RH  054%=      5-min Rain = 0
KTH1 020507Z 31005KT 07/M02 A3035 RMK A01 T00661023  RH  053%=      5-min Rain = 0
KTH1 020508Z 31005KT 07/M02 A3035 RMK A01 T00661024  RH  052%=      5-min Rain = 0
KTH1 020509Z 31005KT 07/M02 A3035 RMK A01 T00661021  RH  054%=      5-min Rain = 0
KTH1 020510Z 31006KT 07/M02 A3035 RMK A01 T00661019  RH  054%=      5-min Rain = 0
KTH1 020511Z 31007KT 07/M02 A3035 RMK A01 T00661019  RH  055%=      5-min Rain = 0
KTH1 020512Z 31007KT 07/M02 A3035 RMK A01 T00661021  RH  054%=      5-min Rain = 0
KTH1 020513Z 31007KT 07/M02 A3035 RMK A01 T00661021  RH  054%=      5-min Rain = 0
KTH1 020514Z 31007KT 07/M02 A3035 RMK A01 T00651021  RH  054%=      5-min Rain = 0
KTH1 020515Z 31007KT 07/M02 A3035 RMK A01 T00651021  RH  054%=      5-min Rain = 0
KTH1 020516Z 31007KT 07/M03 A3035 RMK A01 T00651026  RH  052%=      5-min Rain = 0
KTH1 020517Z 31007KT 07/M03 A3035 RMK A01 T00651025  RH  053%=      5-min Rain = 0
KTH1 020518Z 31007KT 06/M03 A3035 RMK A01 T00641028  RH  052%=      5-min Rain = 0
KTH1 020519Z 31007KT 06/M02 A3035 RMK A01 T00641024  RH  053%=      5-min Rain = 0
KTH1 020520Z 31007KT 06/M02 A3035 RMK A01 T00641024  RH  053%=      5-min Rain = 0
KTH1 020521Z 31007KT 06/M03 A3035 RMK A01 T00631027  RH  053%=      5-min Rain = 0
KTH1 020522Z 31006KT 06/M03 A3035 RMK A01 T00631029  RH  052%=      5-min Rain = 0
KTH1 020523Z 31005KT 06/M03 A3035 RMK A01 T00621029  RH  052%=      5-min Rain = 0
KTH1 020524Z 31006KT 06/M03 A3035 RMK A01 T00621028  RH  053%=      5-min Rain = 0
KTH1 020525Z 31005KT 06/M03 A3035 RMK A01 T00621027  RH  053%=      5-min Rain = 0
KTH1 020526Z 31004KT 06/M03 A3035 RMK A01 T00611028  RH  053%=      5-min Rain = 0
KTH1 020527Z 31004KT 06/M03 A3035 RMK A01 T00601028  RH  053%=      5-min Rain = 0
KTH1 020528Z 31003KT 06/M03 A3035 RMK A01 T00591030  RH  053%=      5-min Rain = 0
KTH1 020529Z 31002KT 06/M03 A3035 RMK A01 T00581034  RH  052%=      5-min Rain = 0
KTH1 020530Z 32001KT 06/M04 A3035 RMK A01 T00571035  RH  052%=      5-min Rain = 0
KTH1 020531Z 32002KT 06/M04 A3035 RMK A01 T00561036  RH  052%=      5-min Rain = 0
KTH1 020532Z 31001KT 06/M04 A3035 RMK A01 T00551038  RH  051%=      5-min Rain = 0
KTH1 020533Z 29001KT 06/M04 A3035 RMK A01 T00551040  RH  051%=      5-min Rain = 0
KTH1 020534Z 32001KT 05/M04 A3035 RMK A01 T00541039  RH  051%=      5-min Rain = 0
KTH1 020535Z 29001KT 05/M04 A3035 RMK A01 T00541040  RH  051%=      5-min Rain = 0
KTH1 020536Z 31002KT 05/M04 A3035 RMK A01 T00541041  RH  050%=      5-min Rain = 0
KTH1 020537Z 31002KT 05/M04 A3035 RMK A01 T00541042  RH  050%=      5-min Rain = 0
KTH1 020538Z 31004KT 06/M04 A3035 RMK A01 T00551044  RH  049%=      5-min Rain = 0
KTH1 020539Z 30003KT 06/M05 A3035 RMK A01 T00551046  RH  048%=      5-min Rain = 0
KTH1 020540Z 31004KT 06/M05 A3035 RMK A01 T00561046  RH  048%=      5-min Rain = 0
KTH1 020541Z 30004KT 06/M05 A3035 RMK A01 T00571046  RH  047%=      5-min Rain = 0
KTH1 020542Z 31004KT 06/M04 A3034 RMK A01 T00581044  RH  048%=      5-min Rain = 0
KTH1 020543Z 30005KT 06/M04 A3034 RMK A01 T00581044  RH  048%=      5-min Rain = 0
KTH1 020544Z 30004KT 06/M04 A3034 RMK A01 T00581044  RH  048%=      5-min Rain = 0
KTH1 020545Z 30003KT 06/M04 A3034 RMK A01 T00581040  RH  049%=      5-min Rain = 0
KTH1 020546Z 31003KT 06/M04 A3034 RMK A01 T00581038  RH  050%=      5-min Rain = 0
KTH1 020547Z 31003KT 06/M04 A3034 RMK A01 T00571040  RH  050%=      5-min Rain = 0
KTH1 020548Z 32003KT 06/M04 A3034 RMK A01 T00571039  RH  050%=      5-min Rain = 0
KTH1 020549Z 31002KT 06/M04 A3034 RMK A01 T00561037  RH  051%=      5-min Rain = 0
KTH1 020550Z 31003KT 06/M04 A3034 RMK A01 T00551037  RH  051%=      5-min Rain = 0
KTH1 020551Z 32002KT 05/M04 A3034 RMK A01 T00541040  RH  051%=      5-min Rain = 0
KTH1 020552Z 31002KT 05/M04 A3034 RMK A01 T00531043  RH  050%=      5-min Rain = 0
KTH1 020553Z 31002KT 05/M04 A3034 RMK A01 T00511044  RH  050%=      5-min Rain = 0
KTH1 020554Z 28001KT 05/M05 A3034 RMK A01 T00501045  RH  050%=      5-min Rain = 0
KTH1 020555Z 29002KT 05/M04 A3034 RMK A01 T00491044  RH  051%=      5-min Rain = 0
KTH1 020556Z 28002KT 05/M04 A3034 RMK A01 T00491042  RH  052%=      5-min Rain = 0
KTH1 020557Z 29002KT 05/M04 A3034 RMK A01 T00481043  RH  052%=      5-min Rain = 0
KTH1 020558Z 28002KT 05/M04 A3034 RMK A01 T00481039  RH  053%=      5-min Rain = 0
KTH1 020559Z 28002KT 05/M04 A3034 RMK A01 T00481037  RH  054%=      5-min Rain = 0

Page generated in 0.1125 seconds.